Air Quality Table

TIMESTAMP NO2 SO2 O3 PM10 PM2.5 TEMP HUM AIRPRES WS WD NO
2022-06-26 09:00 25.45 µg/m3 0.13 µg/m3 60.62 µg/m3 51.17 µg/m3 13.39 µg/m3 29.68 °C 58.77 % 1,007.48 mbar 3.35 m/s 185.97 Deg 6.76 µg/m3
2022-06-26 08:00 25.97 µg/m3 0.15 µg/m3 57.56 µg/m3 49 µg/m3 19.91 µg/m3 28.16 °C 69.33 % 1,007.57 mbar 2.55 m/s 190.13 Deg 6.3 µg/m3
2022-06-26 07:00 11.43 µg/m3 0.16 µg/m3 57.09 µg/m3 56.14 µg/m3 11.15 µg/m3 26.39 °C 83.51 % 1,007.34 mbar 1.65 m/s 176.03 Deg 2.23 µg/m3
2022-06-26 06:00 17.78 µg/m3 0.15 µg/m3 43.22 µg/m3 61.58 µg/m3 11.22 µg/m3 25.55 °C 89.08 % 1,006.88 mbar 0.75 m/s 189.82 Deg 1.89 µg/m3
2022-06-26 05:00 13.82 µg/m3 0.13 µg/m3 46.39 µg/m3 55.85 µg/m3 15.53 µg/m3 25.57 °C 83.31 % 1,006.46 mbar 1.03 m/s 102.48 Deg 1.27 µg/m3
2022-06-26 04:00 41.89 µg/m3 0.16 µg/m3 23.93 µg/m3 56.92 µg/m3 25.02 µg/m3 25.88 °C 74.89 % 1,006.19 mbar 1.37 m/s 241.83 Deg 2.01 µg/m3
2022-06-26 03:00 41.17 µg/m3 0.12 µg/m3 40.61 µg/m3 59.28 µg/m3 8.62 µg/m3 25.9 °C 74 % 1,006.05 mbar 2.83 m/s 194.75 Deg 3.37 µg/m3
2022-06-26 02:00 9.95 µg/m3 0.15 µg/m3 67.29 µg/m3 47.53 µg/m3 13.03 µg/m3 26.46 °C 62.39 % 1,006.26 mbar 1.94 m/s 177.95 Deg 0.54 µg/m3
2022-06-26 01:00 10.69 µg/m3 0.12 µg/m3 71.96 µg/m3 54.16 µg/m3 10.02 µg/m3 27.29 °C 48.13 % 1,006.51 mbar 1.38 m/s 154 Deg 0.56 µg/m3
2022-06-26 00:00 22.19 µg/m3 0.11 µg/m3 66.6 µg/m3 52.19 µg/m3 9.43 µg/m3 28.06 °C 40.87 % 1,006.75 mbar 0.9 m/s 189.4 Deg 0.6 µg/m3
2022-06-25 23:00 86.44 µg/m3 0.26 µg/m3 6.9 µg/m3 57.61 µg/m3 9.76 µg/m3 28.57 °C 32.33 % 1,007.11 mbar 0.58 m/s 161.03 Deg 12.99 µg/m3
2022-06-25 22:00 29.03 µg/m3 0.11 µg/m3 62.03 µg/m3 57.63 µg/m3 13.49 µg/m3 28.92 °C 31.64 % 1,007.13 mbar 1.07 m/s 245.63 Deg 1.09 µg/m3
2022-06-25 21:00 19.67 µg/m3 0.11 µg/m3 72.06 µg/m3 61.99 µg/m3 14.16 µg/m3 29.04 °C 36.44 % 1,006.97 mbar 0.82 m/s 289.1 Deg 0.7 µg/m3
2022-06-25 20:00 12.85 µg/m3 0.08 µg/m3 74.65 µg/m3 47.31 µg/m3 7.81 µg/m3 28.58 °C 44.5 % 1,006.49 mbar 1.47 m/s 230.88 Deg 0.93 µg/m3
2022-06-25 19:00 8.03 µg/m3 0.1 µg/m3 83.88 µg/m3 40.61 µg/m3 6.96 µg/m3 29.55 °C 40.15 % 1,006.38 mbar 2.65 m/s 197.75 Deg 0.81 µg/m3
2022-06-25 18:00 12.42 µg/m3 0.1 µg/m3 81.49 µg/m3 42.89 µg/m3 8.5 µg/m3 30.22 °C 40.24 % 1,006.29 mbar 3.03 m/s 189.97 Deg 1.54 µg/m3
2022-06-25 17:00 8.2 µg/m3 0.09 µg/m3 87.6 µg/m3 37.16 µg/m3 8.1 µg/m3 30.99 °C 35.16 % 1,006.40 mbar 3.4 m/s 190.07 Deg 1.43 µg/m3
2022-06-25 16:00 15.37 µg/m3 0.12 µg/m3 88.79 µg/m3 22.92 µg/m3 9.86 µg/m3 30.86 °C 42.94 % 1,006.83 mbar 3.53 m/s 174.13 Deg 2.8 µg/m3
2022-06-25 15:00 9.18 µg/m3 0.11 µg/m3 98.14 µg/m3 29.07 µg/m3 6.91 µg/m3 30.87 °C 40.38 % 1,007.05 mbar 3.68 m/s 163.48 Deg 1.68 µg/m3
2022-06-25 14:00 15.16 µg/m3 0.16 µg/m3 92.43 µg/m3 37.15 µg/m3 8.03 µg/m3 31 °C 40.79 % 1,007.41 mbar 3.32 m/s 165.38 Deg 2.82 µg/m3
2022-06-25 13:00 13.78 µg/m3 0.09 µg/m3 85.89 µg/m3 28.73 µg/m3 10.36 µg/m3 31.32 °C 40.89 % 1,007.68 mbar 3.04 m/s 170.42 Deg 2.74 µg/m3
2022-06-25 12:00 14.01 µg/m3 0.15 µg/m3 79.71 µg/m3 32.13 µg/m3 12.73 µg/m3 31.86 °C 33.09 % 1,007.92 mbar 2.34 m/s 219.37 Deg 2.77 µg/m3
2022-06-25 11:00 23.12 µg/m3 0.18 µg/m3 65.61 µg/m3 38.52 µg/m3 7.85 µg/m3 31.85 °C 36.1 % 1,007.93 mbar 2.52 m/s 211.93 Deg 6.13 µg/m3
2022-06-25 10:00 29.55 µg/m3 0.22 µg/m3 53.52 µg/m3 52.16 µg/m3 10.78 µg/m3 31.11 °C 34.21 % 1,007.58 mbar 3.08 m/s 152.72 Deg 8.94 µg/m3
2022-06-25 09:00 28.09 µg/m3 0.25 µg/m3 55.57 µg/m3 41.74 µg/m3 5.06 µg/m3 31.74 °C 29.7 % 1,007.36 mbar 1.69 m/s 179.83 Deg 7.8 µg/m3
2022-06-25 08:00 26.72 µg/m3 0.26 µg/m3 52.63 µg/m3 38.69 µg/m3 5.08 µg/m3 30.5 °C 29.25 % 1,007.20 mbar 1.07 m/s 157.2 Deg 5.94 µg/m3
2022-06-25 07:00 51.02 µg/m3 0.53 µg/m3 23.71 µg/m3 20.28 µg/m3 6.01 µg/m3 29.11 °C 30.01 % 1,007.01 mbar 0.66 m/s 90.94 Deg 24.71 µg/m3
2022-06-25 06:00 46.79 µg/m3 0.41 µg/m3 16.68 µg/m3 19 µg/m3 6.6 µg/m3 28.72 °C 26.49 % 1,006.62 mbar 0.94 m/s 316.47 Deg 22.9 µg/m3
2022-06-25 05:00 38.53 µg/m3 0.32 µg/m3 19.12 µg/m3 30.95 µg/m3 6.68 µg/m3 27.28 °C 41.39 % 1,006.38 mbar 1.27 m/s 293.23 Deg 8.15 µg/m3
2022-06-25 04:00 27.87 µg/m3 0.25 µg/m3 27.61 µg/m3 20.25 µg/m3 6.59 µg/m3 27.17 °C 49.36 % 1,006.19 mbar 1.42 m/s 323.53 Deg 1.23 µg/m3
2022-06-25 03:00 37.13 µg/m3 0.22 µg/m3 23.63 µg/m3 17.22 µg/m3 9.55 µg/m3 27.19 °C 50.17 % 1,006.32 mbar 1.42 m/s 341 Deg 1.64 µg/m3
2022-06-25 02:00 17.65 µg/m3 0.16 µg/m3 39.86 µg/m3 22.49 µg/m3 12.98 µg/m3 27.28 °C 52.38 % 1,006.43 mbar 1.33 m/s 341.22 Deg 0.9 µg/m3
2022-06-25 01:00 22.4 µg/m3 0.21 µg/m3 41 µg/m3 37.94 µg/m3 18.36 µg/m3 26.97 °C 56.9 % 1,006.74 mbar 2.21 m/s 258.88 Deg 2.13 µg/m3
2022-06-25 00:00 56.15 µg/m3 0.32 µg/m3 17.35 µg/m3 35.03 µg/m3 12.4 µg/m3 28.61 °C 49.87 % 1,006.72 mbar 1.72 m/s 252.35 Deg 11.9 µg/m3
2022-06-24 23:00 52.24 µg/m3 0.25 µg/m3 30.33 µg/m3 43.7 µg/m3 13.2 µg/m3 28.12 °C 53.43 % 1,006.78 mbar 0.93 m/s 254.75 Deg 11.61 µg/m3
2022-06-24 22:00 45.85 µg/m3 0.16 µg/m3 23.96 µg/m3 40.84 µg/m3 12.51 µg/m3 26.99 °C 64.39 % 1,006.73 mbar 1.14 m/s 215.21 Deg 3.68 µg/m3
2022-06-24 21:00 27.79 µg/m3 0.15 µg/m3 38.06 µg/m3 46.05 µg/m3 13.22 µg/m3 28.1 °C 55.79 % 1,006.34 mbar 0.93 m/s 219.07 Deg 1.97 µg/m3
2022-06-24 20:00 14.41 µg/m3 0.08 µg/m3 62.91 µg/m3 53.01 µg/m3 11 µg/m3 28.19 °C 58.07 % 1,006.04 mbar 1.02 m/s 143.67 Deg 1.1 µg/m3
2022-06-24 19:00 9.14 µg/m3 0.13 µg/m3 82.79 µg/m3 45.02 µg/m3 13.29 µg/m3 30.54 °C 44.34 % 1,005.61 mbar 1.64 m/s 261.3 Deg 0.69 µg/m3
2022-06-24 18:00 12.08 µg/m3 0.16 µg/m3 85.21 µg/m3 44.86 µg/m3 11.22 µg/m3 32.15 °C 39.48 % 1,005.60 mbar 1.57 m/s 247.42 Deg 1.39 µg/m3
2022-06-24 17:00 12.96 µg/m3 0.18 µg/m3 89.59 µg/m3 40.98 µg/m3 7.65 µg/m3 33.53 °C 36.73 % 1,005.57 mbar 2.21 m/s 173.03 Deg 2 µg/m3
2022-06-24 16:00 9.34 µg/m3 0.16 µg/m3 96.94 µg/m3 41.79 µg/m3 11.77 µg/m3 34.97 °C 29.86 % 1,005.91 mbar 2 m/s 179.73 Deg 1.42 µg/m3
2022-06-24 15:00 11.98 µg/m3 0.16 µg/m3 95.05 µg/m3 48.6 µg/m3 15.92 µg/m3 33.74 °C 38.12 % 1,006.41 mbar 2.66 m/s 149.22 Deg 1.99 µg/m3
2022-06-24 14:00 15.39 µg/m3 0.21 µg/m3 86.09 µg/m3 35.51 µg/m3 7.36 µg/m3 33.89 °C 37.3 % 1,006.68 mbar 2.29 m/s 217.17 Deg 3.27 µg/m3
2022-06-24 13:00 22.85 µg/m3 0.24 µg/m3 79 µg/m3 37.74 µg/m3 10.46 µg/m3 34.24 °C 34.24 % 1,006.84 mbar 2.01 m/s 150.97 Deg 4.87 µg/m3
2022-06-24 12:00 24.59 µg/m3 0.23 µg/m3 77.91 µg/m3 54.46 µg/m3 13.37 µg/m3 32.99 °C 40.32 % 1,006.98 mbar 2.44 m/s 265.12 Deg 5.55 µg/m3
2022-06-24 11:00 22.52 µg/m3 0.28 µg/m3 78.38 µg/m3 53.01 µg/m3 20.67 µg/m3 31.52 °C 43.47 % 1,007.13 mbar 2.8 m/s 97.72 Deg 5.4 µg/m3
2022-06-24 10:00 27.13 µg/m3 0.26 µg/m3 82.56 µg/m3 78.12 µg/m3 10.68 µg/m3 31.4 °C 38.79 % 1,007.03 mbar 2.05 m/s 243.03 Deg 4.8 µg/m3
2022-06-24 09:00 49.43 µg/m3 0.38 µg/m3 66.73 µg/m3 81.33 µg/m3 11.54 µg/m3 31.33 °C 32.56 % 1,006.81 mbar 2.04 m/s 210.97 Deg 9.71 µg/m3
2022-06-24 08:00 74.28 µg/m3 0.59 µg/m3 39.67 µg/m3 80.1 µg/m3 15.63 µg/m3 31.42 °C 20.61 % 1,006.57 mbar 1.25 m/s 325.02 Deg 23.25 µg/m3
2022-06-24 07:00 88.59 µg/m3 0.6 µg/m3 20.81 µg/m3 63.15 µg/m3 3.98 µg/m3 28.95 °C 22.49 % 1,006.26 mbar 0.97 m/s 328.55 Deg 31.05 µg/m3
2022-06-24 06:00 70.28 µg/m3 0.31 µg/m3 34.7 µg/m3 30.59 µg/m3 4.07 µg/m3 28.05 °C 21.49 % 1,006.05 mbar 2.02 m/s 305.47 Deg 10.47 µg/m3
2022-06-24 05:00 24 µg/m3 0.18 µg/m3 67.73 µg/m3 14.15 µg/m3 4.47 µg/m3 28.23 °C 22.75 % 1,005.96 mbar 2.03 m/s 285.85 Deg 1.73 µg/m3
2022-06-24 04:00 8.86 µg/m3 0.15 µg/m3 86.82 µg/m3 9.4 µg/m3 5.5 µg/m3 28.96 °C 22.68 % 1,005.97 mbar 3.01 m/s 299.73 Deg 0.51 µg/m3
2022-06-24 03:00 19.37 µg/m3 0.14 µg/m3 78.59 µg/m3 12.12 µg/m3 6.11 µg/m3 28.71 °C 23.48 % 1,006.32 mbar 3.28 m/s 293.8 Deg 0.77 µg/m3
2022-06-24 02:00 7.18 µg/m3 0.13 µg/m3 85.01 µg/m3 18.47 µg/m3 7.33 µg/m3 28.31 °C 26.85 % 1,006.89 mbar 2.26 m/s 282.43 Deg 0.47 µg/m3
2022-06-24 01:00 13.05 µg/m3 0.14 µg/m3 73.55 µg/m3 30.85 µg/m3 8.08 µg/m3 27.32 °C 39.83 % 1,007.45 mbar 1.84 m/s 275.67 Deg 0.64 µg/m3
2022-06-24 00:00 16.94 µg/m3 0.17 µg/m3 58.53 µg/m3 34.45 µg/m3 11.09 µg/m3 26.56 °C 55.2 % 1,007.87 mbar 0.97 m/s 274.88 Deg 0.75 µg/m3
2022-06-23 23:00 24.92 µg/m3 0.14 µg/m3 57.72 µg/m3 40.94 µg/m3 18.66 µg/m3 26.98 °C 58.09 % 1,008.20 mbar 1.12 m/s 310.08 Deg 0.97 µg/m3
2022-06-23 22:00 35.56 µg/m3 0.19 µg/m3 50.7 µg/m3 46.75 µg/m3 17.6 µg/m3 27.33 °C 56.12 % 1,008.07 mbar 1.65 m/s 187.18 Deg 1.7 µg/m3
2022-06-23 21:00 20.8 µg/m3 0.16 µg/m3 56.61 µg/m3 33.37 µg/m3 16.59 µg/m3 27.57 °C 54.48 % 1,007.67 mbar 1.34 m/s 141.3 Deg 0.75 µg/m3
2022-06-23 20:00 19.71 µg/m3 0.13 µg/m3 62.84 µg/m3 42.83 µg/m3 9.78 µg/m3 28.26 °C 49.6 % 1,006.94 mbar 1.22 m/s 216.2 Deg 0.82 µg/m3
2022-06-23 19:00 23.51 µg/m3 0.15 µg/m3 68.96 µg/m3 39.01 µg/m3 12.28 µg/m3 29.88 °C 44.22 % 1,006.65 mbar 1.8 m/s 241.9 Deg 1.62 µg/m3
2022-06-23 18:00 15.19 µg/m3 0.14 µg/m3 86.85 µg/m3 39 µg/m3 10.36 µg/m3 31.84 °C 36.26 % 1,006.42 mbar 2.12 m/s 263.48 Deg 1.62 µg/m3
2022-06-23 17:00 19.47 µg/m3 0.18 µg/m3 89.46 µg/m3 40.59 µg/m3 8.15 µg/m3 32.72 °C 30.9 % 1,006.82 mbar 2.69 m/s 308.38 Deg 4.63 µg/m3
2022-06-23 16:00 11.27 µg/m3 0.14 µg/m3 96.66 µg/m3 35.32 µg/m3 7.77 µg/m3 32.86 °C 33.19 % 1,007.24 mbar 3.07 m/s 286.45 Deg 1.81 µg/m3
2022-06-23 15:00 12.7 µg/m3 0.19 µg/m3 97.03 µg/m3 42.26 µg/m3 9.22 µg/m3 32.75 °C 33.51 % 1,007.39 mbar 2.96 m/s 303.42 Deg 2.4 µg/m3
2022-06-23 14:00 11.79 µg/m3 0.16 µg/m3 95.66 µg/m3 31.55 µg/m3 13 µg/m3 32.78 °C 35.3 % 1,007.60 mbar 3.31 m/s 298.15 Deg 2.22 µg/m3
2022-06-23 13:00 15.1 µg/m3 0.16 µg/m3 97.45 µg/m3 27.93 µg/m3 6.68 µg/m3 33.25 °C 30.9 % 1,007.61 mbar 2.74 m/s 299.65 Deg 2.63 µg/m3
2022-06-23 12:00 20.96 µg/m3 -0.26 µg/m3 94.48 µg/m3 28.28 µg/m3 7.87 µg/m3 33.87 °C 25.64 % 1,007.66 mbar 2.35 m/s 337.35 Deg 3.55 µg/m3
2022-06-23 11:00 16.98 µg/m3 0.03 µg/m3 96.66 µg/m3 39.86 µg/m3 8.51 µg/m3 32.76 °C 26.03 % 1,007.72 mbar 2.57 m/s 334.33 Deg 3.63 µg/m3
2022-06-23 10:00 22.01 µg/m3 0.03 µg/m3 93.76 µg/m3 46.75 µg/m3 14.15 µg/m3 31.76 °C 33.51 % 1,007.80 mbar 2.47 m/s 326.83 Deg 3.95 µg/m3
2022-06-23 09:00 31.82 µg/m3 0.06 µg/m3 81.54 µg/m3 55.07 µg/m3 18.79 µg/m3 30.88 °C 36.15 % 1,007.86 mbar 1.57 m/s 332.77 Deg 5.4 µg/m3
2022-06-23 08:00 44.9 µg/m3 0.14 µg/m3 62.29 µg/m3 54.33 µg/m3 18.63 µg/m3 28.91 °C 39.14 % 1,007.77 mbar 1.56 m/s 307.82 Deg 8.14 µg/m3
2022-06-23 07:00 61.54 µg/m3 0.14 µg/m3 43.04 µg/m3 53.86 µg/m3 10.38 µg/m3 27.05 °C 38.26 % 1,007.40 mbar 1.62 m/s 295.03 Deg 12.71 µg/m3
2022-06-23 06:00 60.86 µg/m3 0.11 µg/m3 30.32 µg/m3 34.18 µg/m3 14.35 µg/m3 25.17 °C 52.36 % 1,007.18 mbar 1.94 m/s 299.58 Deg 12.71 µg/m3
2022-06-23 05:00 18.21 µg/m3 0.02 µg/m3 60.31 µg/m3 17.43 µg/m3 6.97 µg/m3 24.87 °C 59.11 % 1,006.75 mbar 1.92 m/s 283.9 Deg 1.68 µg/m3
2022-06-23 04:00 8.63 µg/m3 0.1 µg/m3 74 µg/m3 17.16 µg/m3 8.04 µg/m3 24.93 °C 45.89 % 1,006.29 mbar 1.61 m/s 248.93 Deg 0.52 µg/m3
2022-06-23 03:00 7.8 µg/m3 -0 µg/m3 83.58 µg/m3 13.97 µg/m3 11.64 µg/m3 25.6 °C 42.78 % 1,006.38 mbar 1.59 m/s 299.83 Deg 0.57 µg/m3
2022-06-23 02:00 16.26 µg/m3 0.01 µg/m3 68.06 µg/m3 16.09 µg/m3 12.82 µg/m3 26.02 °C 44.7 % 1,006.60 mbar 0.9 m/s 272.93 Deg 0.58 µg/m3
2022-06-23 01:00 27.75 µg/m3 -0.04 µg/m3 69.7 µg/m3 26.66 µg/m3 9.45 µg/m3 26.36 °C 43 % 1,006.82 mbar 0.71 m/s 309.77 Deg 0.65 µg/m3
2022-06-23 00:00 18.27 µg/m3 -0.01 µg/m3 72.57 µg/m3 25.49 µg/m3 8.97 µg/m3 26.48 °C 41.23 % 1,007.19 mbar 1.03 m/s 278.02 Deg 0.56 µg/m3
2022-06-22 23:00 15.12 µg/m3 -0.01 µg/m3 77.91 µg/m3 19.99 µg/m3 8.59 µg/m3 26.65 °C 38.07 % 1,007.45 mbar 1.23 m/s 297.6 Deg 0.56 µg/m3
2022-06-22 22:00 22.46 µg/m3 -0.03 µg/m3 68.92 µg/m3 28.98 µg/m3 7.73 µg/m3 26.88 °C 38.76 % 1,007.41 mbar 1.43 m/s 304.02 Deg 0.81 µg/m3
2022-06-22 21:00 17.23 µg/m3 -0.03 µg/m3 77.64 µg/m3 33.71 µg/m3 11.41 µg/m3 27.08 °C 40.28 % 1,007.08 mbar 1.4 m/s 301.88 Deg 0.84 µg/m3
2022-06-22 20:00 18.35 µg/m3 -0.04 µg/m3 80.57 µg/m3 24.51 µg/m3 7.29 µg/m3 27.87 °C 40.95 % 1,006.79 mbar 1.76 m/s 310.98 Deg 1.3 µg/m3
2022-06-22 19:00 16.63 µg/m3 -0.03 µg/m3 92.38 µg/m3 25.94 µg/m3 6.65 µg/m3 29.44 °C 37.23 % 1,006.59 mbar 2.56 m/s 308.32 Deg 1.37 µg/m3
2022-06-22 18:00 16.94 µg/m3 -0 µg/m3 96.57 µg/m3 20.15 µg/m3 8.76 µg/m3 30.91 °C 31.5 % 1,006.43 mbar 2.62 m/s 308.38 Deg 2.08 µg/m3
2022-06-22 17:00 10.98 µg/m3 -0.06 µg/m3 101.59 µg/m3 23.1 µg/m3 5.57 µg/m3 31.12 °C 34.37 % 1,006.68 mbar 1.84 m/s 271.88 Deg 1.62 µg/m3
2022-06-22 16:00 12.45 µg/m3 -0.07 µg/m3 99.87 µg/m3 22.13 µg/m3 5.12 µg/m3 31.31 °C 36.54 % 1,007.23 mbar 2.31 m/s 326.63 Deg 2.18 µg/m3
2022-06-22 15:00 8.49 µg/m3 0.04 µg/m3 102.08 µg/m3 21.24 µg/m3 6.47 µg/m3 31.27 °C 38.34 % 1,007.30 mbar 2.75 m/s 296.02 Deg 1.5 µg/m3
2022-06-22 14:00 8.12 µg/m3 0.19 µg/m3 96.02 µg/m3 28.36 µg/m3 8.56 µg/m3 30.46 °C 41.27 % 1,007.21 mbar 2.95 m/s 267 Deg 1.76 µg/m3
2022-06-22 13:00 7.94 µg/m3 0.02 µg/m3 90.32 µg/m3 34.72 µg/m3 6.24 µg/m3 29.67 °C 51.5 % 1,007.37 mbar 2.95 m/s 263.87 Deg 1.87 µg/m3
2022-06-22 12:00 10.9 µg/m3 0.03 µg/m3 85.38 µg/m3 29.64 µg/m3 7.96 µg/m3 29.7 °C 51.55 % 1,007.58 mbar 3.42 m/s 267.15 Deg 2.66 µg/m3
2022-06-22 11:00 12.3 µg/m3 -0.02 µg/m3 97.14 µg/m3 43.32 µg/m3 12.17 µg/m3 30.22 °C 43.79 % 1,007.64 mbar 3.11 m/s 277.67 Deg 2.41 µg/m3
2022-06-22 10:00 17.3 µg/m3 0 µg/m3 91.23 µg/m3 38.42 µg/m3 6.19 µg/m3 29.86 °C 45.28 % 1,007.56 mbar 1.73 m/s 267.02 Deg 4.04 µg/m3
2022-06-22 09:00 29.85 µg/m3 0.03 µg/m3 79.93 µg/m3 37.91 µg/m3 7.19 µg/m3 29.52 °C 39.53 % 1,007.43 mbar 1.72 m/s 322.6 Deg 5.85 µg/m3
2022-06-22 08:00 56.71 µg/m3 0.12 µg/m3 46.53 µg/m3 34.01 µg/m3 9.88 µg/m3 27.36 °C 47.3 % 1,007.32 mbar 1.46 m/s 320.17 Deg 14.51 µg/m3
2022-06-22 07:00 53.66 µg/m3 0.08 µg/m3 34.49 µg/m3 24.11 µg/m3 13.58 µg/m3 24.97 °C 68.86 % 1,006.83 mbar 0.97 m/s 297.21 Deg 12.78 µg/m3
2022-06-22 06:00 40.02 µg/m3 0.04 µg/m3 32.27 µg/m3 23.51 µg/m3 9.23 µg/m3 23.42 °C 87.82 % 1,006.63 mbar 1.12 m/s 306.85 Deg 8.02 µg/m3
2022-06-22 05:00 14.66 µg/m3 -0.05 µg/m3 47.62 µg/m3 12.49 µg/m3 7.76 µg/m3 22.97 °C 93.82 % 1,006.46 mbar 0.78 m/s 284.18 Deg 1.61 µg/m3
2022-06-22 04:00 6.15 µg/m3 -0.02 µg/m3 60.29 µg/m3 8.89 µg/m3 6.48 µg/m3 23.35 °C 86.93 % 1,006.47 mbar 1.27 m/s 258.02 Deg 0.63 µg/m3
2022-06-22 03:00 6.23 µg/m3 -0.07 µg/m3 60.91 µg/m3 11.59 µg/m3 9.01 µg/m3 23.55 °C 85.87 % 1,006.91 mbar 0.92 m/s 249.13 Deg 0.58 µg/m3
2022-06-22 02:00 3.32 µg/m3 -0.07 µg/m3 66.08 µg/m3 16.51 µg/m3 12.9 µg/m3 23.79 °C 84.69 % 1,007.25 mbar 0.77 m/s 297 Deg 0.57 µg/m3
2022-06-22 01:00 2.35 µg/m3 -0.11 µg/m3 65.96 µg/m3 26.2 µg/m3 9.74 µg/m3 23.84 °C 91.16 % 1,007.57 mbar 1.1 m/s 283.6 Deg 0.53 µg/m3
2022-06-22 00:00 6.06 µg/m3 -0.07 µg/m3 62.31 µg/m3 36.85 µg/m3 12.83 µg/m3 23.99 °C 87.38 % 1,008.01 mbar 1.01 m/s 262.9 Deg 0.61 µg/m3
2022-06-21 23:00 6.54 µg/m3 -0.06 µg/m3 66.54 µg/m3 28.97 µg/m3 12.5 µg/m3 24.45 °C 85.67 % 1,008.22 mbar 1.19 m/s 290.19 Deg 0.64 µg/m3
2022-06-21 22:00 9.78 µg/m3 -0.07 µg/m3 65.02 µg/m3 31.25 µg/m3 19.07 µg/m3 24.71 °C 80.63 % 1,008.38 mbar 1.27 m/s 267.07 Deg 0.68 µg/m3
2022-06-21 21:00 10.16 µg/m3 -0.06 µg/m3 70.38 µg/m3 27.72 µg/m3 7.91 µg/m3 25.29 °C 70.46 % 1,008.25 mbar 1.36 m/s 263.2 Deg 0.7 µg/m3
2022-06-21 20:00 12.2 µg/m3 -0.05 µg/m3 76.69 µg/m3 26.64 µg/m3 6.71 µg/m3 26.15 °C 59.8 % 1,008.11 mbar 1.93 m/s 292.13 Deg 1.15 µg/m3
2022-06-21 19:00 12.85 µg/m3 -0.11 µg/m3 78 µg/m3 18.61 µg/m3 5.4 µg/m3 27.08 °C 58.08 % 1,008.05 mbar 2.17 m/s 271.53 Deg 1.19 µg/m3
2022-06-21 18:00 9.22 µg/m3 -0.09 µg/m3 96.59 µg/m3 16.07 µg/m3 5.99 µg/m3 28.79 °C 46.04 % 1,007.88 mbar 2.72 m/s 281.2 Deg 1.34 µg/m3
2022-06-21 17:00 16.2 µg/m3 -0.06 µg/m3 100.95 µg/m3 26.19 µg/m3 5.79 µg/m3 29.57 °C 46.77 % 1,008.07 mbar 2.39 m/s 262.83 Deg 4.09 µg/m3
2022-06-21 16:00 3.99 µg/m3 -0.06 µg/m3 115.28 µg/m3 24.67 µg/m3 6.46 µg/m3 27.9 °C 63.9 % 1,008.43 mbar 3.93 m/s 130.67 Deg 0.82 µg/m3
2022-06-21 15:00 2.35 µg/m3 -0.1 µg/m3 119.84 µg/m3 20.9 µg/m3 9.41 µg/m3 28.13 °C 62.31 % 1,008.62 mbar 3.67 m/s 154.8 Deg 0.68 µg/m3
2022-06-21 14:00 6.02 µg/m3 -0.1 µg/m3 119.17 µg/m3 27.41 µg/m3 12.78 µg/m3 27.97 °C 62.38 % 1,008.88 mbar 4.42 m/s 146.57 Deg 1.14 µg/m3
2022-06-21 13:00 3.9 µg/m3 -0.07 µg/m3 120.55 µg/m3 29.56 µg/m3 10.45 µg/m3 28.32 °C 61.7 % 1,009.00 mbar 3.42 m/s 212.8 Deg 0.86 µg/m3
2022-06-21 12:00 5.39 µg/m3 -0.07 µg/m3 122.02 µg/m3 32.79 µg/m3 17.4 µg/m3 27.75 °C 64.32 % 1,009.30 mbar 3.14 m/s 130.26 Deg 1 µg/m3
2022-06-21 11:00 20.12 µg/m3 -0.04 µg/m3 111.24 µg/m3 40.98 µg/m3 6.87 µg/m3 27.63 °C 63.68 % 1,009.55 mbar 3.61 m/s 196.95 Deg 3.31 µg/m3
2022-06-21 10:00 17.38 µg/m3 0 µg/m3 111.13 µg/m3 58.84 µg/m3 10.87 µg/m3 28.56 °C 50.51 % 1,009.77 mbar 2.18 m/s 317.28 Deg 2.91 µg/m3
2022-06-21 09:00 30.09 µg/m3 0.06 µg/m3 94.7 µg/m3 41.16 µg/m3 17.35 µg/m3 27.83 °C 52.55 % 1,009.79 mbar 1.59 m/s 341.05 Deg 4.79 µg/m3
2022-06-21 08:00 50.78 µg/m3 0.12 µg/m3 74.22 µg/m3 28 µg/m3 11.33 µg/m3 26.59 °C 57.33 % 1,009.49 mbar 1.48 m/s 342.8 Deg 9.72 µg/m3
2022-06-21 07:00 53.6 µg/m3 0.07 µg/m3 64.46 µg/m3 40.91 µg/m3 16.21 µg/m3 24.75 °C 69.71 % 1,009.00 mbar 1.16 m/s 319.25 Deg 8.32 µg/m3
2022-06-21 06:00 58.24 µg/m3 0.07 µg/m3 46.92 µg/m3 26.37 µg/m3 9.02 µg/m3 23.39 °C 80.16 % 1,008.78 mbar 0.85 m/s 310.43 Deg 7.12 µg/m3
2022-06-21 05:00 22.81 µg/m3 -0.03 µg/m3 77.44 µg/m3 21.3 µg/m3 15.16 µg/m3 23.11 °C 81.26 % 1,008.62 mbar 0.84 m/s 332.75 Deg 1.11 µg/m3
2022-06-21 04:00 8.76 µg/m3 0.03 µg/m3 90.08 µg/m3 26.38 µg/m3 9.18 µg/m3 23.12 °C 80.97 % 1,008.60 mbar 1.03 m/s 308.63 Deg 0.63 µg/m3
2022-06-21 03:00 8.22 µg/m3 -0.02 µg/m3 90.2 µg/m3 24.77 µg/m3 11.2 µg/m3 23.34 °C 78.63 % 1,009.01 mbar 1.33 m/s 311.85 Deg 0.61 µg/m3
2022-06-21 02:00 11.64 µg/m3 -0.04 µg/m3 87.19 µg/m3 25.03 µg/m3 9.05 µg/m3 23.82 °C 76.49 % 1,009.12 mbar 0.91 m/s 325 Deg 0.68 µg/m3
2022-06-21 01:00 17.94 µg/m3 -0.04 µg/m3 85.22 µg/m3 32.29 µg/m3 8.06 µg/m3 24.08 °C 76.62 % 1,009.39 mbar 0.83 m/s 322.33 Deg 0.75 µg/m3
2022-06-21 00:00 25.99 µg/m3 -0.07 µg/m3 84.11 µg/m3 23.32 µg/m3 11.6 µg/m3 24.35 °C 78.57 % 1,009.74 mbar 0.88 m/s 335.31 Deg 0.76 µg/m3
2022-06-20 23:00 11.63 µg/m3 -0.05 µg/m3 109.23 µg/m3 27.21 µg/m3 14.61 µg/m3 24.58 °C 76.73 % 1,010.00 mbar 1.52 m/s 264.92 Deg 0.57 µg/m3
2022-06-20 22:00 7.46 µg/m3 -0.08 µg/m3 116.63 µg/m3 31.66 µg/m3 9.25 µg/m3 24.6 °C 77.08 % 1,009.93 mbar 1.45 m/s 6.83 Deg 0.63 µg/m3
2022-06-20 21:00 10.8 µg/m3 -0.06 µg/m3 103.68 µg/m3 20.53 µg/m3 6.22 µg/m3 24.82 °C 77.1 % 1,009.58 mbar 1.75 m/s 94.23 Deg 0.91 µg/m3
2022-06-20 20:00 9.25 µg/m3 -0.04 µg/m3 89.04 µg/m3 24.62 µg/m3 8.53 µg/m3 24.63 °C 72.41 % 1,009.13 mbar 1.45 m/s 228.33 Deg 0.62 µg/m3
2022-06-20 19:00 5.25 µg/m3 -0.09 µg/m3 102.21 µg/m3 22.73 µg/m3 11.06 µg/m3 25.28 °C 74.53 % 1,008.83 mbar 1.73 m/s 205.32 Deg 0.64 µg/m3
2022-06-20 18:00 17.42 µg/m3 -0.06 µg/m3 93.43 µg/m3 26.22 µg/m3 8.94 µg/m3 25.56 °C 73.83 % 1,008.72 mbar 2.67 m/s 169.78 Deg 1.94 µg/m3
2022-06-20 17:00 13.28 µg/m3 -0.07 µg/m3 99.57 µg/m3 34.81 µg/m3 5.51 µg/m3 25.79 °C 72.16 % 1,008.57 mbar 2.93 m/s 162.22 Deg 1.98 µg/m3
2022-06-20 16:00 2.07 µg/m3 -0.06 µg/m3 114.87 µg/m3 13.38 µg/m3 5.67 µg/m3 26.67 °C 65.14 % 1,008.67 mbar 3.12 m/s 149.58 Deg 0.65 µg/m3
2022-06-20 15:00 1.33 µg/m3 -0.09 µg/m3 116.97 µg/m3 6.33 µg/m3 4.77 µg/m3 26.78 °C 64.7 % 1,008.88 mbar 3.38 m/s 151.03 Deg 0.57 µg/m3
2022-06-20 14:00 2.41 µg/m3 -0.09 µg/m3 115.37 µg/m3 7.57 µg/m3 5.29 µg/m3 27.28 °C 60.26 % 1,009.04 mbar 2.49 m/s 255.88 Deg 0.68 µg/m3
2022-06-20 13:00 0.81 µg/m3 -0.07 µg/m3 119.31 µg/m3 8.73 µg/m3 5.98 µg/m3 26.27 °C 59.78 % 1,009.19 mbar 3.19 m/s 189.88 Deg 0.49 µg/m3
2022-06-20 12:00 2.26 µg/m3 -0.09 µg/m3 112.8 µg/m3 9.46 µg/m3 6.24 µg/m3 26.48 °C 53.31 % 1,009.37 mbar 2.83 m/s 203.55 Deg 0.72 µg/m3
2022-06-20 11:00 7.45 µg/m3 -0.09 µg/m3 100.85 µg/m3 12.79 µg/m3 6.3 µg/m3 26.01 °C 58.05 % 1,009.47 mbar 3.44 m/s 138.23 Deg 1.57 µg/m3
2022-06-20 10:00 5.44 µg/m3 -0.07 µg/m3 106.2 µg/m3 16.06 µg/m3 8.26 µg/m3 26.32 °C 56.13 % 1,009.38 mbar 2.28 m/s 245.97 Deg 1.13 µg/m3
2022-06-20 09:00 5.8 µg/m3 -0.05 µg/m3 101.02 µg/m3 27.34 µg/m3 10.36 µg/m3 25.54 °C 59.1 % 1,009.24 mbar 1.94 m/s 221.72 Deg 1.29 µg/m3
2022-06-20 08:00 19.94 µg/m3 -0.05 µg/m3 75.72 µg/m3 33.42 µg/m3 12.92 µg/m3 24.86 °C 76.2 % 1,009.03 mbar 1.6 m/s 256.41 Deg 3.58 µg/m3
2022-06-20 07:00 20.23 µg/m3 -0.06 µg/m3 74.32 µg/m3 26.98 µg/m3 10.64 µg/m3 23.85 °C 84.49 % 1,008.58 mbar 0.73 m/s 239.53 Deg 2.94 µg/m3
2022-06-20 06:00 33.69 µg/m3 0.01 µg/m3 50.44 µg/m3 29.06 µg/m3 12.55 µg/m3 22.84 °C 93.59 % 1,008.13 mbar 0.93 m/s 100.44 Deg 5.24 µg/m3
2022-06-20 05:00 16.96 µg/m3 -0.02 µg/m3 62.21 µg/m3 21.53 µg/m3 7.67 µg/m3 22.42 °C 95.6 % 1,007.85 mbar 0.83 m/s 22.58 Deg 1.09 µg/m3
2022-06-20 04:00 5.26 µg/m3 -0.05 µg/m3 79 µg/m3 27.66 µg/m3 8.94 µg/m3 22.4 °C 96.43 % 1,007.67 mbar 1.28 m/s 98.55 Deg 0.69 µg/m3
2022-06-20 03:00 9.15 µg/m3 -0.1 µg/m3 74.42 µg/m3 20.58 µg/m3 15 µg/m3 22.37 °C 95.04 % 1,007.84 mbar 1.59 m/s 37.9 Deg 0.77 µg/m3
2022-06-20 02:00 15.36 µg/m3 -0.03 µg/m3 67.52 µg/m3 25.99 µg/m3 16.85 µg/m3 22.37 °C 97.16 % 1,008.01 mbar 1.55 m/s 29.05 Deg 0.99 µg/m3
2022-06-20 01:00 8.32 µg/m3 -0.05 µg/m3 74.52 µg/m3 34.94 µg/m3 11.23 µg/m3 22.63 °C 99.68 % 1,008.32 mbar 1.39 m/s 28.9 Deg 0.76 µg/m3
2022-06-20 00:00 5.2 µg/m3 -0.08 µg/m3 86.83 µg/m3 27.09 µg/m3 17.81 µg/m3 22.81 °C 98.14 % 1,008.53 mbar 0.95 m/s 27.6 Deg 0.67 µg/m3
2022-06-19 23:00 4.15 µg/m3 -0.1 µg/m3 91.03 µg/m3 20.72 µg/m3 12.02 µg/m3 22.83 °C 98.46 % 1,008.70 mbar 0.84 m/s 117 Deg 0.5 µg/m3
2022-06-19 22:00 0.91 µg/m3 -0.1 µg/m3 90.99 µg/m3 17.3 µg/m3 10.18 µg/m3 22.89 °C 97.79 % 1,008.65 mbar 0.65 m/s 123.17 Deg 0.46 µg/m3
2022-06-19 21:00 1.81 µg/m3 -0.09 µg/m3 89.94 µg/m3 25.38 µg/m3 11.54 µg/m3 22.99 °C 97.49 % 1,008.34 mbar 1.06 m/s 126.68 Deg 0.5 µg/m3
2022-06-19 20:00 3.03 µg/m3 -0.07 µg/m3 93.56 µg/m3 34.36 µg/m3 12.98 µg/m3 23.32 °C 95.58 % 1,007.86 mbar 2.08 m/s 134.98 Deg 0.47 µg/m3
2022-06-19 19:00 1.71 µg/m3 -0.07 µg/m3 99.47 µg/m3 23.09 µg/m3 11.97 µg/m3 24.01 °C 87.94 % 1,007.50 mbar 3.5 m/s 136.37 Deg 0.51 µg/m3
2022-06-19 18:00 2.58 µg/m3 -0.08 µg/m3 100.74 µg/m3 15.07 µg/m3 8.09 µg/m3 24.36 °C 84.55 % 1,007.26 mbar 4.26 m/s 133.85 Deg 0.61 µg/m3
2022-06-19 17:00 2.04 µg/m3 -0.09 µg/m3 107.12 µg/m3 20.36 µg/m3 8.31 µg/m3 24.91 °C 78.47 % 1,007.35 mbar 4.62 m/s 125.25 Deg 0.63 µg/m3
2022-06-19 16:00 1.12 µg/m3 -0.09 µg/m3 111.93 µg/m3 25.66 µg/m3 8.63 µg/m3 25.1 °C 79.76 % 1,007.62 mbar 4 m/s 192.77 Deg 0.56 µg/m3
2022-06-19 15:00 0.83 µg/m3 -0.1 µg/m3 117.18 µg/m3 24.2 µg/m3 10.99 µg/m3 25.08 °C 81.67 % 1,008.06 mbar 3.96 m/s 201.88 Deg 0.51 µg/m3
2022-06-19 14:00 0.86 µg/m3 -0.11 µg/m3 115.45 µg/m3 18.32 µg/m3 7.68 µg/m3 25.25 °C 79.21 % 1,008.44 mbar 4.01 m/s 162.17 Deg 0.55 µg/m3
2022-06-19 13:00 0.95 µg/m3 -0.1 µg/m3 115.98 µg/m3 15.27 µg/m3 8.03 µg/m3 25.33 °C 80.51 % 1,008.63 mbar 4.44 m/s 168.83 Deg 0.56 µg/m3
2022-06-19 12:00 1.69 µg/m3 -0.07 µg/m3 118.43 µg/m3 18.86 µg/m3 7 µg/m3 25.25 °C 81.42 % 1,008.71 mbar 4.7 m/s 194.55 Deg 0.64 µg/m3
2022-06-19 11:00 2.87 µg/m3 -0.1 µg/m3 122.48 µg/m3 14.6 µg/m3 7 µg/m3 24.94 °C 83.62 % 1,008.62 mbar 4.47 m/s 189.18 Deg 0.77 µg/m3
2022-06-19 10:00 2.44 µg/m3 -0.11 µg/m3 120.18 µg/m3 13.19 µg/m3 7.46 µg/m3 24.63 °C 85.13 % 1,008.69 mbar 4.46 m/s 168.37 Deg 0.75 µg/m3
2022-06-19 09:00 3.8 µg/m3 -0.1 µg/m3 116.63 µg/m3 17.12 µg/m3 9.32 µg/m3 24.58 °C 86.01 % 1,008.69 mbar 3.49 m/s 204.92 Deg 0.91 µg/m3
2022-06-19 08:00 5.06 µg/m3 -0.07 µg/m3 114.38 µg/m3 20.3 µg/m3 12.91 µg/m3 24.47 °C 84.54 % 1,008.57 mbar 1.91 m/s 270.36 Deg 1 µg/m3
2022-06-19 07:00 5.32 µg/m3 -0.09 µg/m3 110.2 µg/m3 32.42 µg/m3 14.2 µg/m3 23.76 °C 87.46 % 1,008.28 mbar 1.94 m/s 113.07 Deg 0.91 µg/m3
2022-06-19 06:00 10.74 µg/m3 -0.09 µg/m3 86.01 µg/m3 24.48 µg/m3 11.71 µg/m3 22.39 °C 98.26 % 1,008.03 mbar 1.25 m/s 47.78 Deg 0.83 µg/m3
2022-06-19 05:00 5.63 µg/m3 -0.07 µg/m3 82.69 µg/m3 23.57 µg/m3 16.25 µg/m3 22.22 °C 99.9 % 1,007.67 mbar 1.03 m/s 192.06 Deg 0.59 µg/m3
2022-06-19 04:00 3.94 µg/m3 -0.07 µg/m3 85.8 µg/m3 25.78 µg/m3 14.19 µg/m3 22.2 °C 99.9 % 1,007.68 mbar 1.13 m/s 231.75 Deg 0.56 µg/m3
2022-06-19 03:00 5.91 µg/m3 -0.12 µg/m3 81.89 µg/m3 21.94 µg/m3 10.2 µg/m3 22.32 °C 99.92 % 1,007.81 mbar 1.18 m/s 150.87 Deg 0.57 µg/m3
2022-06-19 02:00 4.16 µg/m3 -0.13 µg/m3 97.69 µg/m3 24.04 µg/m3 8.4 µg/m3 22.56 °C 98.28 % 1,007.89 mbar 2.16 m/s 160.97 Deg 0.54 µg/m3
2022-06-19 01:00 4.29 µg/m3 -0.13 µg/m3 110.49 µg/m3 20.81 µg/m3 9.21 µg/m3 22.73 °C 96.2 % 1,008.20 mbar 2.17 m/s 191.08 Deg 0.62 µg/m3
2022-06-19 00:00 2.4 µg/m3 -0.12 µg/m3 110.9 µg/m3 29.66 µg/m3 11.31 µg/m3 22.8 °C 94.7 % 1,008.25 mbar 2.32 m/s 175.92 Deg 0.51 µg/m3
2022-06-18 23:00 1.15 µg/m3 -0.11 µg/m3 99 µg/m3 22.43 µg/m3 16.21 µg/m3 22.92 °C 95.93 % 1,008.27 mbar 1.79 m/s 120.37 Deg 0.53 µg/m3
2022-06-18 22:00 3.03 µg/m3 -0.09 µg/m3 102.78 µg/m3 22.28 µg/m3 12.77 µg/m3 23.25 °C 91.95 % 1,008.15 mbar 2.96 m/s 131.57 Deg 0.53 µg/m3
2022-06-18 21:00 3.32 µg/m3 -0.12 µg/m3 103.6 µg/m3 14.36 µg/m3 13.67 µg/m3 23.42 °C 91.87 % 1,007.89 mbar 3.83 m/s 124.22 Deg 0.54 µg/m3
2022-06-18 20:00 2.03 µg/m3 -0.12 µg/m3 107.3 µg/m3 16.22 µg/m3 12.67 µg/m3 23.42 °C 93.93 % 1,007.19 mbar 5.05 m/s 115.18 Deg 0.52 µg/m3
2022-06-18 19:00 2.43 µg/m3 -0.1 µg/m3 100.64 µg/m3 25.54 µg/m3 12.33 µg/m3 23.71 °C 96.92 % 1,007.44 mbar 4.12 m/s 195.02 Deg 0.58 µg/m3
2022-06-18 18:00 4.97 µg/m3 -0.09 µg/m3 91.88 µg/m3 36.86 µg/m3 14.42 µg/m3 24.22 °C 95.01 % 1,007.36 mbar 3.23 m/s 290.55 Deg 0.8 µg/m3
2022-06-18 17:00 2.06 µg/m3 -0.09 µg/m3 91 µg/m3 21.8 µg/m3 9.12 µg/m3 24.75 °C 90.02 % 1,007.43 mbar 3.58 m/s 225.32 Deg 0.79 µg/m3
2022-06-18 16:00 0.51 µg/m3 -0.08 µg/m3 101.66 µg/m3 13.42 µg/m3 13.14 µg/m3 25.41 °C 82.23 % 1,007.19 mbar 3.46 m/s 153.05 Deg 0.57 µg/m3
2022-06-18 15:00 1.21 µg/m3 -0.09 µg/m3 109.79 µg/m3 12.1 µg/m3 8.43 µg/m3 25.66 °C 79.2 % 1,007.23 mbar 4.03 m/s 127.07 Deg 0.66 µg/m3
2022-06-18 14:00 1.17 µg/m3 -0.09 µg/m3 114.85 µg/m3 16.74 µg/m3 6.35 µg/m3 25.57 °C 78.07 % 1,007.18 mbar 3.94 m/s 144 Deg 0.64 µg/m3
2022-06-18 13:00 1.91 µg/m3 -0.09 µg/m3 107.86 µg/m3 21.94 µg/m3 7.6 µg/m3 25.28 °C 83.36 % 1,007.53 mbar 4.22 m/s 135.07 Deg 0.74 µg/m3
2022-06-18 12:00 2.27 µg/m3 -0.06 µg/m3 102.67 µg/m3 22.91 µg/m3 10.6 µg/m3 25.57 °C 81.35 % 1,007.82 mbar 4.66 m/s 146.15 Deg 0.81 µg/m3
2022-06-18 11:00 11.04 µg/m3 -0.05 µg/m3 89.35 µg/m3 16.42 µg/m3 9.02 µg/m3 25.99 °C 78.36 % 1,007.89 mbar 3.42 m/s 159.53 Deg 2.74 µg/m3
2022-06-18 10:00 6.57 µg/m3 -0.05 µg/m3 97.19 µg/m3 17.03 µg/m3 10.93 µg/m3 26.36 °C 70.03 % 1,007.96 mbar 2.55 m/s 180.55 Deg 1.54 µg/m3
2022-06-18 09:00 7.75 µg/m3 -0.09 µg/m3 91.74 µg/m3 24.47 µg/m3 14.88 µg/m3 25.98 °C 71.42 % 1,008.01 mbar 2.37 m/s 306.3 Deg 1.71 µg/m3
2022-06-18 08:00 10.31 µg/m3 -0.03 µg/m3 87.41 µg/m3 37.73 µg/m3 12.08 µg/m3 25.2 °C 79.47 % 1,008.08 mbar 1.57 m/s 259.85 Deg 1.9 µg/m3
2022-06-18 07:00 17.17 µg/m3 -0.05 µg/m3 73.32 µg/m3 36.7 µg/m3 15.15 µg/m3 24.54 °C 85.82 % 1,007.98 mbar 1.22 m/s 180.95 Deg 2.22 µg/m3
2022-06-18 06:00 17.93 µg/m3 -0.02 µg/m3 62.94 µg/m3 21.17 µg/m3 18.43 µg/m3 23.65 °C 87.41 % 1,007.71 mbar 0.85 m/s 211.18 Deg 1.5 µg/m3
2022-06-18 05:00 8.1 µg/m3 0.01 µg/m3 69.38 µg/m3 17.77 µg/m3 11.23 µg/m3 23.55 °C 89.87 % 1,007.50 mbar 0.86 m/s 297.72 Deg 0.71 µg/m3
2022-06-18 04:00 4.76 µg/m3 0.05 µg/m3 77.58 µg/m3 17.96 µg/m3 11.65 µg/m3 23.95 °C 85.32 % 1,007.37 mbar 2.02 m/s 301.77 Deg 0.65 µg/m3
2022-06-18 03:00 5.45 µg/m3 -0.03 µg/m3 85.98 µg/m3 25.83 µg/m3 19.01 µg/m3 24.13 °C 71.23 % 1,007.85 mbar 2.22 m/s 289.8 Deg 0.73 µg/m3
2022-06-18 02:00 7.81 µg/m3 0.01 µg/m3 86.47 µg/m3 42.9 µg/m3 33.86 µg/m3 24.31 °C 68.49 % 1,008.44 mbar 1.88 m/s 289.42 Deg 0.67 µg/m3
2022-06-18 01:00 15.02 µg/m3 0.19 µg/m3 77.78 µg/m3 78.97 µg/m3 48.53 µg/m3 24.54 °C 65.68 % 1,008.76 mbar 1.48 m/s 290.78 Deg 0.95 µg/m3
2022-06-18 00:00 15.79 µg/m3 0.44 µg/m3 76.8 µg/m3 84.54 µg/m3 27.93 µg/m3 24.71 °C 71.53 % 1,008.99 mbar 1.83 m/s 304.2 Deg 2.1 µg/m3
2022-06-17 23:00 15.13 µg/m3 0.22 µg/m3 78.58 µg/m3 54.2 µg/m3 12.31 µg/m3 24.94 °C 72.95 % 1,009.48 mbar 1.66 m/s 315.22 Deg 1.34 µg/m3
2022-06-17 22:00 14.5 µg/m3 -0.02 µg/m3 77.62 µg/m3 39.68 µg/m3 17.63 µg/m3 25.3 °C 65.24 % 1,009.65 mbar 1.67 m/s 300.42 Deg 0.94 µg/m3
2022-06-17 21:00 20.09 µg/m3 -0.05 µg/m3 63.8 µg/m3 35.17 µg/m3 5.65 µg/m3 25.5 °C 67.49 % 1,009.47 mbar 1.34 m/s 278.1 Deg 1.06 µg/m3
2022-06-17 20:00 16.19 µg/m3 -0.04 µg/m3 79.74 µg/m3 24.83 µg/m3 5.04 µg/m3 26.48 °C 56.55 % 1,009.16 mbar 1.76 m/s 308.68 Deg 1.18 µg/m3
2022-06-17 19:00 16.33 µg/m3 -0.04 µg/m3 83.34 µg/m3 12.67 µg/m3 4.53 µg/m3 28.23 °C 45.75 % 1,009.00 mbar 2.26 m/s 316.18 Deg 1.93 µg/m3
2022-06-17 18:00 15.1 µg/m3 -0.06 µg/m3 85.95 µg/m3 11.49 µg/m3 4.26 µg/m3 29.36 °C 42.45 % 1,008.85 mbar 2.38 m/s 321.95 Deg 2.14 µg/m3
2022-06-17 17:00 10.79 µg/m3 -0.04 µg/m3 92.24 µg/m3 12.85 µg/m3 4.51 µg/m3 29.56 °C 41.99 % 1,008.85 mbar 2.57 m/s 299.4 Deg 1.97 µg/m3
2022-06-17 16:00 4.58 µg/m3 -0.1 µg/m3 109.87 µg/m3 10.49 µg/m3 6.13 µg/m3 27.85 °C 58.24 % 1,009.32 mbar 2.89 m/s 150.85 Deg 0.94 µg/m3
2022-06-17 15:00 3.62 µg/m3 -0.08 µg/m3 112.66 µg/m3 11.81 µg/m3 7.12 µg/m3 27.68 °C 60.19 % 1,009.70 mbar 3.59 m/s 136.33 Deg 0.85 µg/m3
2022-06-17 14:00 4.1 µg/m3 -0.06 µg/m3 119.87 µg/m3 13.61 µg/m3 7.89 µg/m3 28.06 °C 55.43 % 1,010.00 mbar 3.65 m/s 139.63 Deg 0.86 µg/m3
2022-06-17 13:00 3.87 µg/m3 -0.05 µg/m3 120.25 µg/m3 21.3 µg/m3 10.38 µg/m3 28.14 °C 50.5 % 1,010.36 mbar 2.83 m/s 148.65 Deg 0.86 µg/m3
2022-06-17 12:00 7.96 µg/m3 -0.05 µg/m3 108.06 µg/m3 34.4 µg/m3 14.88 µg/m3 26.75 °C 63.59 % 1,010.81 mbar 3.29 m/s 148.68 Deg 1.64 µg/m3
2022-06-17 11:00 21.19 µg/m3 -0.02 µg/m3 89.86 µg/m3 40.25 µg/m3 12.17 µg/m3 26.75 °C 65.08 % 1,010.69 mbar 3.36 m/s 158.28 Deg 4.26 µg/m3
2022-06-17 10:00 38.35 µg/m3 0.02 µg/m3 71.57 µg/m3 40.85 µg/m3 6.58 µg/m3 26.29 °C 60.14 % 1,010.55 mbar 2.68 m/s 161.95 Deg 9.44 µg/m3
2022-06-17 09:00 28.66 µg/m3 0.05 µg/m3 73.04 µg/m3 26.22 µg/m3 7.86 µg/m3 25.95 °C 62.01 % 1,010.53 mbar 2.54 m/s 175.5 Deg 6.26 µg/m3
2022-06-17 08:00 47.58 µg/m3 0.1 µg/m3 55.28 µg/m3 30.45 µg/m3 11.83 µg/m3 26.48 °C 56.56 % 1,010.59 mbar 1.29 m/s 174.86 Deg 11.08 µg/m3
2022-06-17 07:00 34.08 µg/m3 0.04 µg/m3 64.98 µg/m3 29.03 µg/m3 17.64 µg/m3 24.97 °C 61.71 % 1,010.48 mbar 1.24 m/s 343.52 Deg 5.8 µg/m3
2022-06-17 06:00 50.16 µg/m3 0.07 µg/m3 32.7 µg/m3 23.5 µg/m3 6.41 µg/m3 23.83 °C 64.82 % 1,010.27 mbar 0.84 m/s 295.89 Deg 6.57 µg/m3
2022-06-17 05:00 35.65 µg/m3 0.02 µg/m3 49.22 µg/m3 15.58 µg/m3 6.2 µg/m3 23.57 °C 70.55 % 1,009.97 mbar 2.19 m/s 347.65 Deg 1.81 µg/m3
2022-06-17 04:00 22.37 µg/m3 0.03 µg/m3 61.64 µg/m3 9.71 µg/m3 8.32 µg/m3 23.59 °C 71.07 % 1,009.89 mbar 1.26 m/s 351.32 Deg 0.81 µg/m3
2022-06-17 03:00 8.14 µg/m3 0.02 µg/m3 70.6 µg/m3 11.31 µg/m3 9.77 µg/m3 23.49 °C 73.12 % 1,009.94 mbar 1.22 m/s 331.23 Deg 0.62 µg/m3
2022-06-17 02:00 16.32 µg/m3 0.03 µg/m3 65.88 µg/m3 14.14 µg/m3 8.97 µg/m3 24.16 °C 55.31 % 1,010.30 mbar 1.09 m/s 337.42 Deg 0.71 µg/m3
2022-06-17 01:00 18.58 µg/m3 0.03 µg/m3 63.63 µg/m3 20.92 µg/m3 8.38 µg/m3 24.29 °C 55.82 % 1,010.77 mbar 1.21 m/s 319.12 Deg 0.89 µg/m3
2022-06-17 00:00 17.04 µg/m3 0.01 µg/m3 59.44 µg/m3 26.23 µg/m3 8.35 µg/m3 23.84 °C 68.79 % 1,011.08 mbar 0.33 m/s 248.47 Deg 0.82 µg/m3
2022-06-16 23:00 16.9 µg/m3 -0.01 µg/m3 67.82 µg/m3 24.24 µg/m3 13.1 µg/m3 24.36 °C 69.83 % 1,011.07 mbar 1.09 m/s 301.27 Deg 0.98 µg/m3
2022-06-16 22:00 28.56 µg/m3 0.02 µg/m3 50.39 µg/m3 33.52 µg/m3 21.92 µg/m3 24.02 °C 75.78 % 1,011.21 mbar 1.07 m/s 249.43 Deg 1.21 µg/m3
2022-06-16 21:00 36.01 µg/m3 0.01 µg/m3 52.6 µg/m3 32.96 µg/m3 11.21 µg/m3 24.57 °C 79.93 % 1,010.79 mbar 1.59 m/s 258.42 Deg 1.76 µg/m3
2022-06-16 20:00 18.21 µg/m3 -0.04 µg/m3 76.71 µg/m3 26.28 µg/m3 7.72 µg/m3 24.94 °C 74.53 % 1,010.50 mbar 1.85 m/s 183.68 Deg 1.49 µg/m3
2022-06-16 19:00 19.31 µg/m3 -0.05 µg/m3 84.14 µg/m3 20.96 µg/m3 6.84 µg/m3 25.45 °C 68.56 % 1,010.24 mbar 1.72 m/s 202.8 Deg 1.18 µg/m3
2022-06-16 18:00 3.04 µg/m3 -0.03 µg/m3 101.73 µg/m3 16.58 µg/m3 4.39 µg/m3 25.85 °C 68.17 % 1,009.93 mbar 3.01 m/s 146.15 Deg 0.63 µg/m3
2022-06-16 17:00 4.2 µg/m3 -0.04 µg/m3 106.23 µg/m3 15.74 µg/m3 4.91 µg/m3 27.09 °C 61.84 % 1,009.68 mbar 2.61 m/s 178.07 Deg 0.87 µg/m3
2022-06-16 16:00 7.54 µg/m3 0.01 µg/m3 101.93 µg/m3 11.56 µg/m3 6 µg/m3 26.85 °C 65.2 % 1,009.92 mbar 3.19 m/s 149.33 Deg 1.47 µg/m3
2022-06-16 15:00 2.91 µg/m3 0.07 µg/m3 102.93 µg/m3 13.4 µg/m3 7.45 µg/m3 26.94 °C 66.79 % 1,010.33 mbar 2.66 m/s 235.22 Deg 0.86 µg/m3
2022-06-16 14:00 3.62 µg/m3 0.35 µg/m3 102.09 µg/m3 21.6 µg/m3 10.89 µg/m3 26.5 °C 73.35 % 1,010.66 mbar 2.79 m/s 159.17 Deg 0.94 µg/m3
2022-06-16 13:00 4.82 µg/m3 2.67 µg/m3 98.84 µg/m3 34.21 µg/m3 14.85 µg/m3 26.19 °C 76.16 % 1,010.77 mbar 3.37 m/s 168.18 Deg 1.28 µg/m3
2022-06-16 12:00 7.24 µg/m3 36.4 µg/m3 101.54 µg/m3 28.8 µg/m3 9.73 µg/m3 27 °C 68.28 % 1,010.81 mbar 2.03 m/s 112.87 Deg 1.66 µg/m3
2022-06-16 11:00 0 µg/m3 0.03 µg/m3 94.69 µg/m3 38.53 µg/m3 12.98 µg/m3 26.59 °C 68.73 % 1,010.68 mbar 3.44 m/s 123.28 Deg 0 µg/m3
2022-06-16 10:00 0 µg/m3 -0.01 µg/m3 98.31 µg/m3 39.26 µg/m3 8.85 µg/m3 26.71 °C 65.39 % 1,010.48 mbar 2.73 m/s 187.35 Deg 0 µg/m3
2022-06-16 09:00 0 µg/m3 0.03 µg/m3 92.69 µg/m3 36.05 µg/m3 10.54 µg/m3 27.48 °C 46.26 % 1,010.54 mbar 1.61 m/s 243.45 Deg 0 µg/m3
2022-06-16 08:00 0 µg/m3 0.04 µg/m3 71 µg/m3 37.32 µg/m3 13.82 µg/m3 26.26 °C 51.44 % 1,010.52 mbar 1.74 m/s 316.51 Deg 0 µg/m3
2022-06-16 07:00 74.64 µg/m3 0.14 µg/m3 39.13 µg/m3 34.61 µg/m3 7.54 µg/m3 24.29 °C 59.64 % 1,010.31 mbar 1.35 m/s 323.18 Deg 12.18 µg/m3
2022-06-16 06:00 66.33 µg/m3 0.15 µg/m3 39.62 µg/m3 32.66 µg/m3 8.32 µg/m3 23.34 °C 62.64 % 1,010.16 mbar 1.19 m/s 327.98 Deg 10.53 µg/m3
2022-06-16 05:00 30.35 µg/m3 0.05 µg/m3 60.1 µg/m3 17.43 µg/m3 9.89 µg/m3 22.73 °C 73.06 % 1,010.00 mbar 1.25 m/s 297.55 Deg 1.95 µg/m3
2022-06-16 04:00 19.28 µg/m3 0.07 µg/m3 57.56 µg/m3 10.91 µg/m3 12.94 µg/m3 22.96 °C 70.27 % 1,009.93 mbar 1.06 m/s 310.9 Deg 1.1 µg/m3
2022-06-16 03:00 17.88 µg/m3 0.02 µg/m3 67.49 µg/m3 14.31 µg/m3 12.16 µg/m3 22.92 °C 81.77 % 1,009.97 mbar 0.75 m/s 280.49 Deg 0.93 µg/m3
2022-06-16 02:00 11.31 µg/m3 0.01 µg/m3 77.27 µg/m3 18 µg/m3 8.71 µg/m3 23.26 °C 81.41 % 1,010.16 mbar 0.54 m/s 259.73 Deg 0.83 µg/m3
2022-06-16 01:00 26.49 µg/m3 0 µg/m3 70.99 µg/m3 24.93 µg/m3 11.83 µg/m3 23.59 °C 74.27 % 1,010.55 mbar 0.58 m/s 218.66 Deg 0.85 µg/m3
2022-06-16 00:00 25.47 µg/m3 -0.01 µg/m3 75.81 µg/m3 31.95 µg/m3 11.26 µg/m3 24.05 °C 71.44 % 1,011.14 mbar 1.08 m/s 321.12 Deg 0.96 µg/m3
2022-06-15 23:00 20.7 µg/m3 -0.02 µg/m3 87.96 µg/m3 26.81 µg/m3 8.16 µg/m3 24.41 °C 67.22 % 1,011.21 mbar 0.99 m/s 118.98 Deg 1.04 µg/m3
2022-06-15 22:00 19.1 µg/m3 -0.01 µg/m3 97.66 µg/m3 34.02 µg/m3 11.56 µg/m3 24.59 °C 68.72 % 1,011.30 mbar 1.47 m/s 94.04 Deg 0.78 µg/m3
2022-06-15 21:00 14.61 µg/m3 -0 µg/m3 105.69 µg/m3 24.47 µg/m3 8.23 µg/m3 24.77 °C 68.84 % 1,010.99 mbar 1.77 m/s 269.4 Deg 1.03 µg/m3
2022-06-15 20:00 11.96 µg/m3 -0.02 µg/m3 111 µg/m3 17.3 µg/m3 10.07 µg/m3 25.65 °C 53.11 % 1,010.52 mbar 2.51 m/s 18.9 Deg 1.01 µg/m3
2022-06-15 19:00 13.78 µg/m3 -0 µg/m3 111.39 µg/m3 26.51 µg/m3 12.39 µg/m3 26.59 °C 47.88 % 1,010.27 mbar 2.56 m/s 101.92 Deg 2.78 µg/m3
2022-06-15 18:00 14.48 µg/m3 -0.03 µg/m3 111.48 µg/m3 26.07 µg/m3 4.4 µg/m3 26.7 °C 52.93 % 1,010.24 mbar 3.07 m/s 10.93 Deg 1.66 µg/m3
2022-06-15 17:00 19.26 µg/m3 0.06 µg/m3 118.77 µg/m3 18.71 µg/m3 4.66 µg/m3 27.7 °C 52.28 % 1,010.22 mbar 2.6 m/s 27.98 Deg 6.54 µg/m3
2022-06-15 16:00 9.47 µg/m3 -0.03 µg/m3 124.28 µg/m3 10.38 µg/m3 5.81 µg/m3 28.47 °C 48.51 % 1,010.35 mbar 2.6 m/s 138.75 Deg 1.32 µg/m3
2022-06-15 15:00 20.11 µg/m3 -0.05 µg/m3 117.31 µg/m3 10.56 µg/m3 7.08 µg/m3 27.94 °C 48.83 % 1,010.73 mbar 2.61 m/s 161.53 Deg 2.92 µg/m3
2022-06-15 14:00 8.25 µg/m3 -0.03 µg/m3 118.93 µg/m3 15.1 µg/m3 8.86 µg/m3 27.92 °C 45.31 % 1,011.09 mbar 2.53 m/s 193.47 Deg 1.45 µg/m3
2022-06-15 13:00 7.02 µg/m3 -0.01 µg/m3 115.23 µg/m3 25.63 µg/m3 10.72 µg/m3 28.06 °C 45.68 % 1,011.32 mbar 2.36 m/s 223.6 Deg 1.32 µg/m3
2022-06-15 12:00 12.38 µg/m3 -0.01 µg/m3 107.02 µg/m3 33.43 µg/m3 9.24 µg/m3 27.34 °C 56.09 % 1,011.36 mbar 3.42 m/s 150.55 Deg 2.31 µg/m3
2022-06-15 11:00 17.6 µg/m3 0.01 µg/m3 109.85 µg/m3 30.55 µg/m3 7.93 µg/m3 26.69 °C 61.5 % 1,011.38 mbar 3.28 m/s 160.83 Deg 2.97 µg/m3
2022-06-15 10:00 12.51 µg/m3 0.03 µg/m3 105.97 µg/m3 44.42 µg/m3 8.26 µg/m3 28.37 °C 43.41 % 1,010.99 mbar 1.69 m/s 33.72 Deg 2.36 µg/m3
2022-06-15 09:00 15.65 µg/m3 0.02 µg/m3 102.72 µg/m3 44.27 µg/m3 12.06 µg/m3 27.66 °C 47.75 % 1,010.60 mbar 1.63 m/s 20.34 Deg 2.62 µg/m3
2022-06-15 08:00 81.71 µg/m3 0.24 µg/m3 47.95 µg/m3 43.8 µg/m3 7.89 µg/m3 26.79 °C 50.86 % 1,010.46 mbar 1.44 m/s 346.23 Deg 22.2 µg/m3
2022-06-15 07:00 111.44 µg/m3 0.71 µg/m3 16.7 µg/m3 34.95 µg/m3 6.95 µg/m3 24.96 °C 55.21 % 1,010.27 mbar 1.63 m/s 338.33 Deg 69.45 µg/m3
2022-06-15 06:00 77.85 µg/m3 0.16 µg/m3 34.89 µg/m3 21.2 µg/m3 6.59 µg/m3 23.82 °C 55.3 % 1,009.98 mbar 1.06 m/s 338.67 Deg 14.36 µg/m3
2022-06-15 05:00 26.39 µg/m3 0.01 µg/m3 73.79 µg/m3 11.08 µg/m3 6.81 µg/m3 23.26 °C 55.5 % 1,009.72 mbar 1.19 m/s 323.27 Deg 1.4 µg/m3
2022-06-15 04:00 9.31 µg/m3 0.05 µg/m3 84.06 µg/m3 12.45 µg/m3 9.39 µg/m3 23.49 °C 56.74 % 1,009.42 mbar 1.04 m/s 319.78 Deg 0.7 µg/m3
2022-06-15 03:00 9.42 µg/m3 -0.02 µg/m3 93.59 µg/m3 18.72 µg/m3 11.8 µg/m3 23.35 °C 67.11 % 1,009.41 mbar 1.13 m/s 329.82 Deg 0.92 µg/m3
2022-06-15 02:00 8.85 µg/m3 -0.02 µg/m3 93.6 µg/m3 22.87 µg/m3 7.3 µg/m3 23.41 °C 79.47 % 1,009.57 mbar 0.86 m/s 319.15 Deg 0.76 µg/m3
2022-06-15 01:00 12.66 µg/m3 -0.01 µg/m3 88.28 µg/m3 31.82 µg/m3 7.62 µg/m3 23.46 °C 84.62 % 1,009.77 mbar 1.07 m/s 319.6 Deg 0.77 µg/m3
2022-06-15 00:00 11.25 µg/m3 -0.05 µg/m3 97.49 µg/m3 37.2 µg/m3 7.35 µg/m3 23.6 °C 88.15 % 1,009.90 mbar 1.24 m/s 350.55 Deg 0.71 µg/m3
2022-06-14 23:00 10.52 µg/m3 -0.03 µg/m3 101.12 µg/m3 41.64 µg/m3 8.64 µg/m3 23.68 °C 88.54 % 1,010.01 mbar 1.68 m/s 266.1 Deg 0.76 µg/m3
2022-06-14 22:00 15.77 µg/m3 -0.04 µg/m3 95.85 µg/m3 39.97 µg/m3 6.1 µg/m3 24.25 °C 83.3 % 1,009.77 mbar 1.31 m/s 246.58 Deg 0.95 µg/m3
2022-06-14 21:00 15.9 µg/m3 -0.03 µg/m3 85.23 µg/m3 22.18 µg/m3 5.1 µg/m3 24.49 °C 68.06 % 1,009.11 mbar 0.74 m/s 186.31 Deg 0.77 µg/m3
2022-06-14 20:00 10.31 µg/m3 -0.05 µg/m3 94.4 µg/m3 21.37 µg/m3 4.28 µg/m3 24.61 °C 73.16 % 1,008.56 mbar 0.98 m/s 244.16 Deg 0.68 µg/m3
2022-06-14 19:00 3.24 µg/m3 -0.06 µg/m3 99.73 µg/m3 19.59 µg/m3 4.57 µg/m3 25.19 °C 70.09 % 1,008.08 mbar 2.31 m/s 210.38 Deg 0.69 µg/m3
2022-06-14 18:00 15.17 µg/m3 -0.04 µg/m3 98.05 µg/m3 10.08 µg/m3 5.07 µg/m3 25.58 °C 66.89 % 1,007.79 mbar 2.96 m/s 174.87 Deg 1.7 µg/m3
2022-06-14 17:00 6.89 µg/m3 -0.06 µg/m3 109.68 µg/m3 6.91 µg/m3 5.9 µg/m3 26.02 °C 66.44 % 1,007.70 mbar 2.96 m/s 164.28 Deg 1.21 µg/m3
2022-06-14 16:00 1.49 µg/m3 -0.09 µg/m3 114.48 µg/m3 4.27 µg/m3 6.36 µg/m3 26.37 °C 62.87 % 1,007.82 mbar 3.13 m/s 144.68 Deg 0.67 µg/m3
2022-06-14 15:00 0.89 µg/m3 -0.08 µg/m3 116.78 µg/m3 3.95 µg/m3 6.21 µg/m3 26.45 °C 59.77 % 1,008.13 mbar 3.44 m/s 136.25 Deg 0.61 µg/m3
2022-06-14 14:00 1.29 µg/m3 -0.1 µg/m3 119.34 µg/m3 5.14 µg/m3 5.17 µg/m3 26.41 °C 66.56 % 1,008.37 mbar 2.88 m/s 176.27 Deg 0.65 µg/m3
2022-06-14 13:00 1.59 µg/m3 -0.09 µg/m3 119.8 µg/m3 7.53 µg/m3 6.37 µg/m3 26.56 °C 59.55 % 1,008.45 mbar 2.54 m/s 169.47 Deg 0.73 µg/m3
2022-06-14 12:00 2.82 µg/m3 -0.1 µg/m3 120.67 µg/m3 9.58 µg/m3 6.36 µg/m3 26.18 °C 63.57 % 1,008.43 mbar 2.04 m/s 197.38 Deg 0.83 µg/m3
2022-06-14 11:00 5.06 µg/m3 -0.11 µg/m3 116.38 µg/m3 13.57 µg/m3 7 µg/m3 26.1 °C 66.31 % 1,008.41 mbar 2.31 m/s 239.43 Deg 1.14 µg/m3
2022-06-14 10:00 5.98 µg/m3 -0.1 µg/m3 111.22 µg/m3 22.3 µg/m3 9.01 µg/m3 25.59 °C 68.66 % 1,008.37 mbar 1.88 m/s 202.25 Deg 1.31 µg/m3
2022-06-14 09:00 8.28 µg/m3 -0.13 µg/m3 105.34 µg/m3 35.32 µg/m3 11.36 µg/m3 24.59 °C 76.24 % 1,008.16 mbar 1.8 m/s 180.43 Deg 1.75 µg/m3
2022-06-14 08:00 0 µg/m3 0 µg/m3 0 µg/m3 39.26 µg/m3 15.9 µg/m3 23.64 °C 84.47 % 1,007.98 mbar 1.7 m/s 158.25 Deg 0 µg/m3
2022-06-14 07:00 0 µg/m3 0 µg/m3 0 µg/m3 39.02 µg/m3 16.44 µg/m3 22.98 °C 87.13 % 1,007.84 mbar 1.25 m/s 239.37 Deg 0 µg/m3
2022-06-14 06:00 33.3 µg/m3 -0.08 µg/m3 63.97 µg/m3 30.18 µg/m3 12.96 µg/m3 22.17 °C 88.89 % 1,007.24 mbar 0.83 m/s 170.15 Deg 2.7 µg/m3
2022-06-14 05:00 22.22 µg/m3 -0.08 µg/m3 68.98 µg/m3 38.7 µg/m3 7.35 µg/m3 21.63 °C 89.44 % 1,007.07 mbar 0.78 m/s 34.88 Deg 1.28 µg/m3
2022-06-14 04:00 10.33 µg/m3 -0.13 µg/m3 79.99 µg/m3 20.91 µg/m3 8.81 µg/m3 21.42 °C 92.52 % 1,006.92 mbar 0.46 m/s 255.12 Deg 0.72 µg/m3
2022-06-14 03:00 7.13 µg/m3 -0.11 µg/m3 88.34 µg/m3 11.66 µg/m3 7.19 µg/m3 21.47 °C 92.14 % 1,006.92 mbar 0.83 m/s 242.65 Deg 0.6 µg/m3
2022-06-14 02:00 4.25 µg/m3 -0.13 µg/m3 88.9 µg/m3 11.9 µg/m3 7.17 µg/m3 21.48 °C 90.63 % 1,007.06 mbar 0.86 m/s 234.33 Deg 0.6 µg/m3
2022-06-14 01:00 3.12 µg/m3 -0.13 µg/m3 98.9 µg/m3 14.08 µg/m3 10.53 µg/m3 21.77 °C 88.2 % 1,007.28 mbar 1.22 m/s 240.8 Deg 0.61 µg/m3
2022-06-14 00:00 3.83 µg/m3 -0.11 µg/m3 102.07 µg/m3 22.86 µg/m3 10.46 µg/m3 22.17 °C 84.9 % 1,007.45 mbar 1.21 m/s 245.25 Deg 0.63 µg/m3
2022-06-13 23:00 5.47 µg/m3 -0.14 µg/m3 99.98 µg/m3 36.9 µg/m3 9.62 µg/m3 22.22 °C 88.36 % 1,007.43 mbar 2.11 m/s 234.42 Deg 0.72 µg/m3
2022-06-13 22:00 8.07 µg/m3 -0.11 µg/m3 100.31 µg/m3 33.53 µg/m3 14 µg/m3 22.82 °C 85.2 % 1,007.70 mbar 2.22 m/s 235.12 Deg 0.81 µg/m3
2022-06-13 21:00 27.85 µg/m3 -0.08 µg/m3 82.6 µg/m3 44.05 µg/m3 16.62 µg/m3 23.49 °C 81.93 % 1,007.51 mbar 1.64 m/s 178.5 Deg 0.91 µg/m3
2022-06-13 20:00 4.24 µg/m3 -0.08 µg/m3 115.07 µg/m3 48.88 µg/m3 17.83 µg/m3 23.54 °C 85.37 % 1,007.35 mbar 2.24 m/s 165.52 Deg 0.62 µg/m3
2022-06-13 19:00 32.17 µg/m3 -0.07 µg/m3 94.59 µg/m3 41.82 µg/m3 12.37 µg/m3 25.61 °C 66.96 % 1,007.10 mbar 2.01 m/s 210.75 Deg 1.72 µg/m3
2022-06-13 18:00 19.86 µg/m3 -0.08 µg/m3 108.4 µg/m3 28.38 µg/m3 5.87 µg/m3 27.22 °C 55.23 % 1,006.91 mbar 2.17 m/s 178.13 Deg 2.58 µg/m3
2022-06-13 17:00 10.96 µg/m3 -0.08 µg/m3 119.3 µg/m3 21.88 µg/m3 5.94 µg/m3 26.68 °C 56.82 % 1,006.93 mbar 3.04 m/s 22.1 Deg 1.87 µg/m3
2022-06-13 16:00 6.37 µg/m3 -0.11 µg/m3 126.83 µg/m3 23.34 µg/m3 6.7 µg/m3 27.16 °C 55.37 % 1,007.07 mbar 2.86 m/s 217.72 Deg 1.06 µg/m3
2022-06-13 15:00 6.1 µg/m3 -0.1 µg/m3 134.4 µg/m3 18.71 µg/m3 7.87 µg/m3 26.97 °C 54.21 % 1,007.35 mbar 3.39 m/s 138.52 Deg 1.05 µg/m3
2022-06-13 14:00 11.69 µg/m3 -0.1 µg/m3 123.35 µg/m3 21.37 µg/m3 6.14 µg/m3 27.03 °C 53.13 % 1,007.63 mbar 3.38 m/s 172.28 Deg 1.92 µg/m3
2022-06-13 13:00 9.31 µg/m3 -0.07 µg/m3 114.04 µg/m3 14.77 µg/m3 6.67 µg/m3 27.74 °C 48.1 % 1,008.01 mbar 2.15 m/s 139.35 Deg 1.74 µg/m3
2022-06-13 12:00 9.74 µg/m3 -0.1 µg/m3 111.49 µg/m3 14.5 µg/m3 6.78 µg/m3 27.09 °C 48.28 % 1,008.24 mbar 3.03 m/s 20.97 Deg 1.95 µg/m3
2022-06-13 11:00 11.8 µg/m3 -0.05 µg/m3 111.48 µg/m3 16.17 µg/m3 8.25 µg/m3 26.58 °C 50.25 % 1,008.41 mbar 2.41 m/s 180.87 Deg 2.68 µg/m3
2022-06-13 10:00 11.9 µg/m3 -0.07 µg/m3 108.51 µg/m3 19.78 µg/m3 10.19 µg/m3 25.97 °C 52.2 % 1,008.30 mbar 2.4 m/s 94.43 Deg 2.82 µg/m3
2022-06-13 09:00 12.05 µg/m3 -0.1 µg/m3 101.75 µg/m3 27.87 µg/m3 9.64 µg/m3 24.98 °C 60.85 % 1,008.29 mbar 2.72 m/s 96.77 Deg 2.55 µg/m3
2022-06-13 08:00 20.31 µg/m3 -0.06 µg/m3 87.58 µg/m3 32.14 µg/m3 8.25 µg/m3 23.96 °C 68.19 % 1,008.07 mbar 2.89 m/s 5.55 Deg 4.66 µg/m3
2022-06-13 07:00 28.31 µg/m3 -0.08 µg/m3 77.43 µg/m3 30.01 µg/m3 8.98 µg/m3 23.33 °C 70.28 % 1,007.70 mbar 2.26 m/s 16.42 Deg 4.67 µg/m3
2022-06-13 06:00 39.02 µg/m3 -0.05 µg/m3 68.15 µg/m3 19.44 µg/m3 7.2 µg/m3 22.56 °C 74.15 % 1,007.20 mbar 1.27 m/s 38.53 Deg 4.43 µg/m3
2022-06-13 05:00 14.68 µg/m3 -0.1 µg/m3 82.99 µg/m3 18.49 µg/m3 7.79 µg/m3 22.08 °C 77.48 % 1,006.92 mbar 1.08 m/s 98.13 Deg 0.73 µg/m3
2022-06-13 04:00 7.32 µg/m3 -0.06 µg/m3 91.1 µg/m3 25.52 µg/m3 8.91 µg/m3 21.99 °C 79.34 % 1,006.70 mbar 1.1 m/s 164.73 Deg 0.68 µg/m3
2022-06-13 03:00 9.84 µg/m3 -0.12 µg/m3 85.67 µg/m3 36.61 µg/m3 10.49 µg/m3 21.98 °C 86.32 % 1,006.80 mbar 1.47 m/s 40.07 Deg 0.72 µg/m3
2022-06-13 02:00 6.63 µg/m3 -0.09 µg/m3 91.94 µg/m3 33.84 µg/m3 10.57 µg/m3 22.29 °C 88.54 % 1,007.13 mbar 1.66 m/s 103 Deg 0.66 µg/m3
2022-06-13 01:00 14.77 µg/m3 -0.08 µg/m3 88.53 µg/m3 33.05 µg/m3 7.62 µg/m3 22.41 °C 88.32 % 1,007.58 mbar 2.08 m/s 339.5 Deg 0.79 µg/m3
2022-06-13 00:00 7.01 µg/m3 -0.11 µg/m3 98.63 µg/m3 31.96 µg/m3 10.19 µg/m3 23.16 °C 74.59 % 1,007.91 mbar 2.7 m/s 336.83 Deg 0.59 µg/m3
2022-06-12 23:00 10.01 µg/m3 -0.12 µg/m3 96.64 µg/m3 47.63 µg/m3 13.65 µg/m3 23.73 °C 65.81 % 1,007.96 mbar 3.79 m/s 330 Deg 0.75 µg/m3
2022-06-12 22:00 11.52 µg/m3 -0.11 µg/m3 93.24 µg/m3 54.36 µg/m3 13.61 µg/m3 23.82 °C 69.96 % 1,008.19 mbar 1.92 m/s 287.14 Deg 0.78 µg/m3
2022-06-12 21:00 16.81 µg/m3 -0.08 µg/m3 96.01 µg/m3 51.57 µg/m3 5.61 µg/m3 24.74 °C 62.48 % 1,008.05 mbar 1.54 m/s 311.16 Deg 1.1 µg/m3
2022-06-12 20:00 17.93 µg/m3 -0.07 µg/m3 97.95 µg/m3 33.6 µg/m3 6.6 µg/m3 25.36 °C 60.98 % 1,007.62 mbar 2.1 m/s 316.16 Deg 1.53 µg/m3
2022-06-12 19:00 17.15 µg/m3 -0.09 µg/m3 99.08 µg/m3 29.39 µg/m3 6.38 µg/m3 26.74 °C 54.98 % 1,007.41 mbar 2.32 m/s 310.32 Deg 1.76 µg/m3
2022-06-12 18:00 12.07 µg/m3 -0.07 µg/m3 104.86 µg/m3 18.26 µg/m3 6.23 µg/m3 27.93 °C 48.32 % 1,007.28 mbar 2.85 m/s 323.87 Deg 1.76 µg/m3
2022-06-12 17:00 10.92 µg/m3 -0.08 µg/m3 111.16 µg/m3 21.44 µg/m3 5.75 µg/m3 28.5 °C 48.55 % 1,007.36 mbar 3.01 m/s 333.57 Deg 1.76 µg/m3
2022-06-12 16:00 7.82 µg/m3 -0.07 µg/m3 107.56 µg/m3 10.48 µg/m3 5.99 µg/m3 27.68 °C 58.46 % 1,007.74 mbar 3.39 m/s 94.63 Deg 1.46 µg/m3
2022-06-12 15:00 3.21 µg/m3 -0.1 µg/m3 111.97 µg/m3 4.22 µg/m3 6.61 µg/m3 28.23 °C 42.75 % 1,008.05 mbar 3.07 m/s 10.65 Deg 0.89 µg/m3
2022-06-12 14:00 2.67 µg/m3 -0.1 µg/m3 111.29 µg/m3 4.24 µg/m3 5.71 µg/m3 27.79 °C 40.56 % 1,008.40 mbar 3.49 m/s 93.13 Deg 0.86 µg/m3
2022-06-12 13:00 3.67 µg/m3 -0.11 µg/m3 110.42 µg/m3 5.72 µg/m3 4.94 µg/m3 27.2 °C 44.29 % 1,008.83 mbar 4.19 m/s 96.68 Deg 1.14 µg/m3
2022-06-12 12:00 5.99 µg/m3 -0.09 µg/m3 108.57 µg/m3 8.69 µg/m3 5.71 µg/m3 26.59 °C 48.55 % 1,009.18 mbar 4.07 m/s 179.58 Deg 1.46 µg/m3
2022-06-12 11:00 8.12 µg/m3 -0.11 µg/m3 105.48 µg/m3 10.92 µg/m3 6.86 µg/m3 25.92 °C 50.55 % 1,009.31 mbar 4.41 m/s 180.43 Deg 2.05 µg/m3
2022-06-12 10:00 10.57 µg/m3 -0.1 µg/m3 99.92 µg/m3 15.38 µg/m3 6.35 µg/m3 25.3 °C 55.01 % 1,009.30 mbar 4.2 m/s 178.65 Deg 2.42 µg/m3
2022-06-12 09:00 12.19 µg/m3 -0.1 µg/m3 93.15 µg/m3 21.24 µg/m3 8.57 µg/m3 25.33 °C 63.68 % 1,009.19 mbar 3 m/s 89.72 Deg 2.53 µg/m3
2022-06-12 08:00 17.84 µg/m3 -0.09 µg/m3 81.54 µg/m3 33.1 µg/m3 10.53 µg/m3 24.36 °C 72.45 % 1,009.13 mbar 1.94 m/s 331.6 Deg 3.68 µg/m3
2022-06-12 07:00 28.08 µg/m3 -0.09 µg/m3 62.61 µg/m3 29.89 µg/m3 12.04 µg/m3 22.84 °C 87.35 % 1,008.83 mbar 2.12 m/s 347.47 Deg 4.72 µg/m3
2022-06-12 06:00 24.85 µg/m3 -0.05 µg/m3 55.35 µg/m3 43.34 µg/m3 11.4 µg/m3 21.74 °C 94.36 % 1,008.63 mbar 1.67 m/s 348.23 Deg 3 µg/m3
2022-06-12 05:00 12.36 µg/m3 -0.09 µg/m3 68.38 µg/m3 34.58 µg/m3 17.98 µg/m3 21.59 °C 93.71 % 1,008.23 mbar 1.41 m/s 268.63 Deg 1.18 µg/m3
2022-06-12 04:00 5.17 µg/m3 -0.07 µg/m3 85.63 µg/m3 34.36 µg/m3 10.17 µg/m3 21.47 °C 92.07 % 1,008.08 mbar 1.05 m/s 175.08 Deg 0.7 µg/m3
2022-06-12 03:00 4.09 µg/m3 -0.09 µg/m3 80.36 µg/m3 40.13 µg/m3 13.96 µg/m3 21.03 °C 99.74 % 1,008.22 mbar 0.92 m/s 244.69 Deg 0.64 µg/m3
2022-06-12 02:00 5.67 µg/m3 -0.14 µg/m3 77.47 µg/m3 31.45 µg/m3 14.62 µg/m3 21.12 °C 98.12 % 1,008.30 mbar 1.33 m/s 111.83 Deg 0.67 µg/m3
2022-06-12 01:00 5.96 µg/m3 -0.15 µg/m3 84.6 µg/m3 38.55 µg/m3 20.26 µg/m3 21.29 °C 94.56 % 1,008.50 mbar 1.9 m/s 34.42 Deg 0.7 µg/m3
2022-06-12 00:00 6.52 µg/m3 -0.12 µg/m3 92.25 µg/m3 54.48 µg/m3 17.74 µg/m3 22.17 °C 87.68 % 1,008.42 mbar 2.53 m/s 191.3 Deg 0.94 µg/m3
2022-06-11 23:00 11.54 µg/m3 -0.07 µg/m3 86.98 µg/m3 48.86 µg/m3 18.2 µg/m3 22.85 °C 81 % 1,008.14 mbar 2.55 m/s 347.6 Deg 0.89 µg/m3
2022-06-11 22:00 8.76 µg/m3 -0.1 µg/m3 90.01 µg/m3 47.65 µg/m3 20.8 µg/m3 22.75 °C 83.68 % 1,007.87 mbar 3.2 m/s 323.03 Deg 1.14 µg/m3
2022-06-11 21:00 12.25 µg/m3 -0.06 µg/m3 90.85 µg/m3 52.33 µg/m3 10.91 µg/m3 23.17 °C 79.43 % 1,007.78 mbar 2.9 m/s 327.75 Deg 1.3 µg/m3
2022-06-11 20:00 12.96 µg/m3 -0.07 µg/m3 94.06 µg/m3 52.26 µg/m3 15.58 µg/m3 23.68 °C 73.99 % 1,007.49 mbar 3.38 m/s 325.13 Deg 1.46 µg/m3
2022-06-11 19:00 14.68 µg/m3 -0.09 µg/m3 95.12 µg/m3 49.12 µg/m3 9.59 µg/m3 25.07 °C 68.11 % 1,007.17 mbar 2.96 m/s 310.03 Deg 1.91 µg/m3
2022-06-11 18:00 12 µg/m3 -0.09 µg/m3 97.37 µg/m3 34.38 µg/m3 7.47 µg/m3 26.55 °C 61.97 % 1,006.89 mbar 3.4 m/s 303.25 Deg 1.88 µg/m3
2022-06-11 17:00 8.39 µg/m3 -0.12 µg/m3 99.45 µg/m3 25.68 µg/m3 9.84 µg/m3 27.58 °C 53.93 % 1,006.60 mbar 3.48 m/s 307.25 Deg 1.78 µg/m3
2022-06-11 16:00 8.98 µg/m3 -0.09 µg/m3 100.05 µg/m3 37.29 µg/m3 6.3 µg/m3 27.87 °C 55.97 % 1,006.68 mbar 3 m/s 326.37 Deg 1.98 µg/m3
2022-06-11 15:00 8.82 µg/m3 -0.1 µg/m3 102.16 µg/m3 23.99 µg/m3 6.87 µg/m3 27.34 °C 62.38 % 1,006.71 mbar 3.63 m/s 94 Deg 2.07 µg/m3
2022-06-11 14:00 7.99 µg/m3 -0.05 µg/m3 101.85 µg/m3 16.77 µg/m3 6.55 µg/m3 27.19 °C 59.41 % 1,006.82 mbar 3.44 m/s 183.2 Deg 1.97 µg/m3
2022-06-11 13:00 8.88 µg/m3 -0.09 µg/m3 99.95 µg/m3 17.61 µg/m3 5.59 µg/m3 26.81 °C 54.02 % 1,006.92 mbar 4.12 m/s 346.15 Deg 2.43 µg/m3
2022-06-11 12:00 10.84 µg/m3 -0.07 µg/m3 97.55 µg/m3 19.53 µg/m3 5.78 µg/m3 26.12 °C 54.98 % 1,007.10 mbar 4.72 m/s 351.18 Deg 3.13 µg/m3
2022-06-11 11:00 11.17 µg/m3 -0.09 µg/m3 96.08 µg/m3 24.86 µg/m3 5.31 µg/m3 25.21 °C 62.99 % 1,007.21 mbar 4.79 m/s 350.28 Deg 3.15 µg/m3
2022-06-11 10:00 13.05 µg/m3 -0.11 µg/m3 94.25 µg/m3 15.09 µg/m3 4.78 µg/m3 24.55 °C 66.11 % 1,006.89 mbar 5.62 m/s 349.12 Deg 3.89 µg/m3
2022-06-11 09:00 13.34 µg/m3 -0.09 µg/m3 89.57 µg/m3 13.44 µg/m3 4.65 µg/m3 24.52 °C 64.2 % 1,006.44 mbar 5.64 m/s 349.15 Deg 3.75 µg/m3
2022-06-11 08:00 12.68 µg/m3 -0.13 µg/m3 87.71 µg/m3 14.68 µg/m3 6.43 µg/m3 23.79 °C 67.48 % 1,006.20 mbar 5.22 m/s 343.93 Deg 2.92 µg/m3
2022-06-11 07:00 16.51 µg/m3 -0.12 µg/m3 81.43 µg/m3 17.59 µg/m3 9.98 µg/m3 22.86 °C 72.26 % 1,005.80 mbar 4.3 m/s 345.22 Deg 3.13 µg/m3
2022-06-11 06:00 15.13 µg/m3 -0.12 µg/m3 79.27 µg/m3 24.22 µg/m3 14.23 µg/m3 21.81 °C 80.1 % 1,005.55 mbar 2.79 m/s 335.38 Deg 2.05 µg/m3
2022-06-11 05:00 11.79 µg/m3 -0.15 µg/m3 82.15 µg/m3 24.68 µg/m3 12.74 µg/m3 21.33 °C 86.01 % 1,005.12 mbar 2.61 m/s 328.55 Deg 1.22 µg/m3
2022-06-11 04:00 5.09 µg/m3 -0.11 µg/m3 92.48 µg/m3 21.57 µg/m3 6.67 µg/m3 21.27 °C 89.49 % 1,004.58 mbar 3.58 m/s 336.02 Deg 0.71 µg/m3
2022-06-11 03:00 4.44 µg/m3 -0.12 µg/m3 94.62 µg/m3 24.2 µg/m3 7.13 µg/m3 21.42 °C 88.25 % 1,004.22 mbar 4.37 m/s 339.87 Deg 0.61 µg/m3
2022-06-11 02:00 5.86 µg/m3 -0.15 µg/m3 95.37 µg/m3 21.12 µg/m3 6.97 µg/m3 21.44 °C 88.55 % 1,004.32 mbar 5.01 m/s 342.08 Deg 0.62 µg/m3
2022-06-11 01:00 4.62 µg/m3 -0.13 µg/m3 92.97 µg/m3 22.45 µg/m3 7.27 µg/m3 21.58 °C 86.78 % 1,004.70 mbar 3.89 m/s 337.77 Deg 0.61 µg/m3
2022-06-11 00:00 7.55 µg/m3 -0.14 µg/m3 87.76 µg/m3 27.04 µg/m3 9.9 µg/m3 22.07 °C 81.47 % 1,004.48 mbar 5.36 m/s 340.18 Deg 0.66 µg/m3
2022-06-10 23:00 8.25 µg/m3 -0.1 µg/m3 87.45 µg/m3 34.02 µg/m3 14.54 µg/m3 22.24 °C 79.13 % 1,004.55 mbar 4.56 m/s 341.42 Deg 0.89 µg/m3
2022-06-10 22:00 7.1 µg/m3 -0.12 µg/m3 86.87 µg/m3 48.47 µg/m3 15.36 µg/m3 22.11 °C 81.02 % 1,004.33 mbar 4.14 m/s 331.1 Deg 0.89 µg/m3
2022-06-10 21:00 7.65 µg/m3 -0.12 µg/m3 87.99 µg/m3 47.15 µg/m3 13.73 µg/m3 22.68 °C 76.23 % 1,003.37 mbar 4.66 m/s 327.73 Deg 1.28 µg/m3
2022-06-10 20:00 10.02 µg/m3 -0.12 µg/m3 88.75 µg/m3 42.29 µg/m3 12.05 µg/m3 23.22 °C 72.65 % 1,002.50 mbar 4.77 m/s 331.08 Deg 1.39 µg/m3
2022-06-10 19:00 10.22 µg/m3 -0.09 µg/m3 87.65 µg/m3 55.62 µg/m3 9.32 µg/m3 23.75 °C 70.38 % 1,001.92 mbar 5.29 m/s 329.58 Deg 1.89 µg/m3
2022-06-10 18:00 10.68 µg/m3 -0.12 µg/m3 85.12 µg/m3 59.95 µg/m3 9.81 µg/m3 24.14 °C 70.69 % 1,001.21 mbar 5.36 m/s 322.07 Deg 2.5 µg/m3
2022-06-10 17:00 10.69 µg/m3 -0.11 µg/m3 86.71 µg/m3 65.99 µg/m3 14.43 µg/m3 24.44 °C 69.79 % 1,001.30 mbar 5 m/s 317.52 Deg 2.81 µg/m3
2022-06-10 16:00 9.6 µg/m3 -0.13 µg/m3 90.15 µg/m3 57.54 µg/m3 11.3 µg/m3 24.23 °C 70.67 % 1,001.43 mbar 5.14 m/s 322.27 Deg 3.01 µg/m3
2022-06-10 15:00 8.14 µg/m3 -0.11 µg/m3 86.26 µg/m3 73.75 µg/m3 15.64 µg/m3 24.07 °C 70.86 % 1,001.69 mbar 6.35 m/s 307.6 Deg 2.57 µg/m3
2022-06-10 14:00 9.29 µg/m3 -0.1 µg/m3 87.68 µg/m3 66.73 µg/m3 13.22 µg/m3 24.05 °C 72.11 % 1,001.80 mbar 5.89 m/s 311.6 Deg 3.12 µg/m3
2022-06-10 13:00 10.42 µg/m3 -0.09 µg/m3 89.22 µg/m3 48.03 µg/m3 10.1 µg/m3 24.61 °C 66.67 % 1,002.09 mbar 5.58 m/s 315.55 Deg 3.39 µg/m3
2022-06-10 12:00 13.1 µg/m3 -0.1 µg/m3 84.86 µg/m3 45.54 µg/m3 7.3 µg/m3 24.84 °C 64.02 % 1,002.07 mbar 5.52 m/s 310.45 Deg 4.69 µg/m3
2022-06-10 11:00 12.07 µg/m3 -0.05 µg/m3 82.27 µg/m3 50.82 µg/m3 10.24 µg/m3 24.23 °C 68.28 % 1,002.05 mbar 4.58 m/s 318.1 Deg 3.99 µg/m3
2022-06-10 10:00 10.49 µg/m3 -0.07 µg/m3 78.81 µg/m3 42.63 µg/m3 9.41 µg/m3 23.69 °C 70.26 % 1,001.67 mbar 4.87 m/s 327.4 Deg 3.82 µg/m3
2022-06-10 09:00 11.53 µg/m3 -0.09 µg/m3 73.75 µg/m3 42.25 µg/m3 10.9 µg/m3 23.05 °C 75.34 % 1,001.50 mbar 5.01 m/s 319.47 Deg 3.88 µg/m3
2022-06-10 08:00 19.28 µg/m3 -0.07 µg/m3 64.04 µg/m3 54.33 µg/m3 17.37 µg/m3 22.21 °C 81.16 % 1,001.52 mbar 3.9 m/s 318.52 Deg 6.18 µg/m3
2022-06-10 07:00 15.84 µg/m3 -0.11 µg/m3 64.19 µg/m3 47.52 µg/m3 18.6 µg/m3 21.34 °C 85.74 % 1,001.61 mbar 4.73 m/s 317.9 Deg 4.72 µg/m3
2022-06-10 06:00 15.08 µg/m3 -0.1 µg/m3 63.38 µg/m3 40.47 µg/m3 11.44 µg/m3 20.66 °C 87.35 % 1,001.47 mbar 3.91 m/s 321.48 Deg 3.47 µg/m3
2022-06-10 05:00 7 µg/m3 -0.13 µg/m3 68.01 µg/m3 47.35 µg/m3 6 µg/m3 20.57 °C 86.77 % 1,001.05 mbar 4.16 m/s 322.75 Deg 1.36 µg/m3
2022-06-10 04:00 3.11 µg/m3 -0.13 µg/m3 71.25 µg/m3 38.34 µg/m3 7.31 µg/m3 20.56 °C 85.51 % 1,001.11 mbar 4.61 m/s 321.52 Deg 0.78 µg/m3
2022-06-10 03:00 2.74 µg/m3 -0.15 µg/m3 72.52 µg/m3 24.58 µg/m3 8.69 µg/m3 20.8 °C 83.35 % 1,001.38 mbar 4.62 m/s 311.02 Deg 0.7 µg/m3
2022-06-10 02:00 2.14 µg/m3 -0.13 µg/m3 72.59 µg/m3 19.55 µg/m3 8.71 µg/m3 21.02 °C 83.14 % 1,001.57 mbar 4.32 m/s 316.13 Deg 0.58 µg/m3
2022-06-10 01:00 1.65 µg/m3 -0.15 µg/m3 75.55 µg/m3 24.18 µg/m3 7.14 µg/m3 21.19 °C 82.4 % 1,001.75 mbar 4.72 m/s 314 Deg 0.6 µg/m3
2022-06-10 00:00 2.45 µg/m3 -0.13 µg/m3 78.52 µg/m3 21.75 µg/m3 9.56 µg/m3 21.37 °C 82.61 % 1,002.06 mbar 4.32 m/s 310.9 Deg 0.69 µg/m3
2022-06-09 23:00 4.2 µg/m3 -0.11 µg/m3 77.38 µg/m3 26.56 µg/m3 13.62 µg/m3 21.77 °C 83.16 % 1,002.43 mbar 4.65 m/s 311.43 Deg 0.91 µg/m3
2022-06-09 22:00 4.27 µg/m3 -0.12 µg/m3 78.81 µg/m3 29.2 µg/m3 9.96 µg/m3 22.04 °C 88.96 % 1,002.49 mbar 4.59 m/s 315.47 Deg 1.01 µg/m3
2022-06-09 21:00 6.49 µg/m3 -0.12 µg/m3 82.7 µg/m3 46.45 µg/m3 15.96 µg/m3 22.22 °C 90.56 % 1,002.41 mbar 4.03 m/s 311.82 Deg 1.35 µg/m3
2022-06-09 20:00 9 µg/m3 -0.08 µg/m3 83.8 µg/m3 50.9 µg/m3 17.32 µg/m3 22.6 °C 87.58 % 1,002.05 mbar 3.96 m/s 305.73 Deg 1.68 µg/m3
2022-06-09 19:00 8.91 µg/m3 -0.1 µg/m3 78.66 µg/m3 57.52 µg/m3 16.6 µg/m3 23.49 °C 79.86 % 1,001.76 mbar 4.21 m/s 313.33 Deg 2.19 µg/m3
2022-06-09 18:00 8.37 µg/m3 -0.08 µg/m3 76.98 µg/m3 58.17 µg/m3 13.8 µg/m3 24.38 °C 75.42 % 1,001.53 mbar 4.29 m/s 315.93 Deg 2.61 µg/m3
2022-06-09 17:00 9.69 µg/m3 -0.08 µg/m3 76.39 µg/m3 54.36 µg/m3 9.86 µg/m3 24.81 °C 70.53 % 1,001.66 mbar 5.06 m/s 308.87 Deg 3.47 µg/m3
2022-06-09 16:00 8.22 µg/m3 -0.1 µg/m3 82.23 µg/m3 59.78 µg/m3 8.11 µg/m3 25.47 °C 61.34 % 1,001.89 mbar 5.09 m/s 315.72 Deg 2.75 µg/m3
2022-06-09 15:00 10.8 µg/m3 -0.06 µg/m3 81.83 µg/m3 58.41 µg/m3 4.41 µg/m3 26.22 °C 60.11 % 1,002.14 mbar 4.23 m/s 318.28 Deg 3.4 µg/m3
2022-06-09 14:00 13.81 µg/m3 -0.02 µg/m3 79.84 µg/m3 37.16 µg/m3 4.39 µg/m3 26.55 °C 56.17 % 1,002.53 mbar 4.83 m/s 319.6 Deg 4.53 µg/m3
2022-06-09 13:00 1.16 µg/m3 -0.01 µg/m3 84.01 µg/m3 30.08 µg/m3 5.9 µg/m3 27.63 °C 45.35 % 1,002.56 mbar 4.78 m/s 316.92 Deg 72.92 µg/m3
2022-06-09 12:00 0 µg/m3 -0.02 µg/m3 84.92 µg/m3 22.33 µg/m3 4.96 µg/m3 27.94 °C 47.99 % 1,002.89 mbar 3.95 m/s 318.3 Deg 0 µg/m3
2022-06-09 11:00 0 µg/m3 -0.05 µg/m3 83.56 µg/m3 23.19 µg/m3 6.39 µg/m3 28.13 °C 50.76 % 1,003.28 mbar 3.85 m/s 319.73 Deg 0 µg/m3
2022-06-09 10:00 16.1 µg/m3 -0.05 µg/m3 82.78 µg/m3 26.62 µg/m3 8.82 µg/m3 27.66 °C 53.37 % 1,003.33 mbar 3.19 m/s 324.52 Deg 4.69 µg/m3
2022-06-09 09:00 32.7 µg/m3 0.03 µg/m3 67.6 µg/m3 25.44 µg/m3 10.3 µg/m3 28.11 °C 50.8 % 1,003.18 mbar 2.44 m/s 318.6 Deg 8.82 µg/m3
2022-06-09 08:00 42.61 µg/m3 -0.03 µg/m3 50.02 µg/m3 20.13 µg/m3 5.98 µg/m3 26.06 °C 62.96 % 1,002.89 mbar 2.1 m/s 337.93 Deg 12.72 µg/m3
2022-06-09 07:00 58.75 µg/m3 0.01 µg/m3 33.98 µg/m3 28.04 µg/m3 8.47 µg/m3 24.92 °C 62.65 % 1,002.89 mbar 1.85 m/s 342.3 Deg 16.45 µg/m3
2022-06-09 06:00 44.68 µg/m3 -0.04 µg/m3 42.26 µg/m3 19.04 µg/m3 11.65 µg/m3 23.65 °C 69.17 % 1,002.87 mbar 1.42 m/s 331.12 Deg 8.55 µg/m3
2022-06-09 05:00 19.08 µg/m3 -0.1 µg/m3 59.41 µg/m3 18.45 µg/m3 7.07 µg/m3 23.05 °C 76.58 % 1,002.68 mbar 1.89 m/s 320.93 Deg 1.8 µg/m3
2022-06-09 04:00 6.72 µg/m3 -0.08 µg/m3 78.1 µg/m3 18.38 µg/m3 10.07 µg/m3 23.29 °C 76.01 % 1,002.67 mbar 2.87 m/s 317.35 Deg 0.84 µg/m3
2022-06-09 03:00 3.79 µg/m3 -0.1 µg/m3 80.43 µg/m3 19.48 µg/m3 14.35 µg/m3 23.55 °C 73.84 % 1,002.65 mbar 2.96 m/s 313.73 Deg 0.76 µg/m3
2022-06-09 02:00 3.33 µg/m3 -0.09 µg/m3 81.39 µg/m3 17.83 µg/m3 5.59 µg/m3 23.69 °C 70.21 % 1,002.85 mbar 3.19 m/s 313.9 Deg 0.71 µg/m3
2022-06-09 01:00 4.91 µg/m3 -0.09 µg/m3 82.46 µg/m3 26.27 µg/m3 7.16 µg/m3 24.05 °C 66.89 % 1,003.28 mbar 2.77 m/s 314.15 Deg 0.73 µg/m3
2022-06-09 00:00 6.05 µg/m3 -0.11 µg/m3 85.06 µg/m3 30.58 µg/m3 5.31 µg/m3 24.3 °C 67.04 % 1,003.81 mbar 2.55 m/s 327.95 Deg 0.79 µg/m3
2022-06-08 23:00 7.5 µg/m3 -0.06 µg/m3 85.15 µg/m3 23.71 µg/m3 5.42 µg/m3 24.64 °C 64.12 % 1,004.18 mbar 2.53 m/s 322.15 Deg 0.91 µg/m3
2022-06-08 22:00 8.14 µg/m3 -0.09 µg/m3 80.47 µg/m3 30.69 µg/m3 5.56 µg/m3 25.04 °C 55.52 % 1,004.55 mbar 2.64 m/s 317.58 Deg 1.19 µg/m3
2022-06-08 21:00 10.28 µg/m3 -0.05 µg/m3 80.44 µg/m3 23.71 µg/m3 6.08 µg/m3 25.28 °C 58.47 % 1,004.16 mbar 3.34 m/s 294.62 Deg 1.55 µg/m3
2022-06-08 20:00 14.99 µg/m3 -0.06 µg/m3 79.59 µg/m3 22.56 µg/m3 7.02 µg/m3 25.97 °C 55.39 % 1,003.74 mbar 3.38 m/s 305.18 Deg 2.87 µg/m3
2022-06-08 19:00 17.12 µg/m3 -0.06 µg/m3 80.59 µg/m3 16.69 µg/m3 7.39 µg/m3 27.37 °C 54.59 % 1,003.56 mbar 3.09 m/s 306.23 Deg 2.76 µg/m3
2022-06-08 18:00 13.39 µg/m3 -0.06 µg/m3 85.3 µg/m3 19.81 µg/m3 9.52 µg/m3 29.62 °C 37.71 % 1,003.39 mbar 3.17 m/s 302.95 Deg 2.38 µg/m3
2022-06-08 17:00 17.17 µg/m3 -0.06 µg/m3 79.52 µg/m3 29.78 µg/m3 12.83 µg/m3 31.28 °C 29.12 % 1,003.47 mbar 2.56 m/s 295.58 Deg 5.3 µg/m3
2022-06-08 16:00 17.42 µg/m3 -0.11 µg/m3 91.68 µg/m3 53.38 µg/m3 17.46 µg/m3 27.4 °C 67.07 % 1,003.87 mbar 2.63 m/s 161.02 Deg 3.53 µg/m3
2022-06-08 15:00 5.9 µg/m3 -0.08 µg/m3 104.2 µg/m3 43.48 µg/m3 11.35 µg/m3 27.3 °C 69.65 % 1,004.15 mbar 3.47 m/s 156.97 Deg 1.43 µg/m3
2022-06-08 14:00 7.53 µg/m3 -0.08 µg/m3 106.59 µg/m3 35.17 µg/m3 5.76 µg/m3 28.74 °C 60.25 % 1,004.13 mbar 2.53 m/s 162.88 Deg 1.61 µg/m3
2022-06-08 13:00 11.16 µg/m3 -0.09 µg/m3 108.33 µg/m3 27.55 µg/m3 6.03 µg/m3 29.59 °C 50.49 % 1,004.37 mbar 2.65 m/s 261.73 Deg 2.15 µg/m3
2022-06-08 12:00 16.82 µg/m3 -0.08 µg/m3 100.89 µg/m3 19.26 µg/m3 8.49 µg/m3 28.85 °C 47.22 % 1,004.82 mbar 2.68 m/s 199.27 Deg 3.17 µg/m3
2022-06-08 11:00 13.02 µg/m3 -0.07 µg/m3 93.06 µg/m3 13.33 µg/m3 6.49 µg/m3 28.4 °C 45.15 % 1,004.91 mbar 2.5 m/s 155.67 Deg 2.79 µg/m3
2022-06-08 10:00 19.77 µg/m3 -0.07 µg/m3 80.39 µg/m3 13.23 µg/m3 5.39 µg/m3 28.04 °C 53.68 % 1,004.90 mbar 1.97 m/s 195.93 Deg 4.62 µg/m3
2022-06-08 09:00 15.4 µg/m3 -0.12 µg/m3 82.92 µg/m3 15.3 µg/m3 7.89 µg/m3 27.76 °C 41.38 % 1,004.73 mbar 1.81 m/s 146.78 Deg 3.69 µg/m3
2022-06-08 08:00 47.38 µg/m3 0.05 µg/m3 49.51 µg/m3 23.7 µg/m3 10.41 µg/m3 26.56 °C 53.09 % 1,004.44 mbar 1.33 m/s 255.32 Deg 14.77 µg/m3
2022-06-08 07:00 22.97 µg/m3 -0.05 µg/m3 58.8 µg/m3 40.2 µg/m3 15.3 µg/m3 23.99 °C 79.58 % 1,003.90 mbar 1.92 m/s 92.63 Deg 6.21 µg/m3
2022-06-08 06:00 20.46 µg/m3 -0.11 µg/m3 59.18 µg/m3 36.33 µg/m3 16.89 µg/m3 23.01 °C 91.95 % 1,003.58 mbar 2.44 m/s 133.7 Deg 3.39 µg/m3
2022-06-08 05:00 13.27 µg/m3 -0.1 µg/m3 64.3 µg/m3 21.98 µg/m3 12.28 µg/m3 23.08 °C 87.99 % 1,003.40 mbar 3.42 m/s 349.96 Deg 1.54 µg/m3
2022-06-08 04:00 6.9 µg/m3 -0.06 µg/m3 76.1 µg/m3 21.29 µg/m3 12.09 µg/m3 23.49 °C 80.9 % 1,002.91 mbar 5.37 m/s 347.3 Deg 0.84 µg/m3
2022-06-08 03:00 5 µg/m3 -0.11 µg/m3 84.5 µg/m3 33.71 µg/m3 12.64 µg/m3 23.57 °C 82.44 % 1,002.86 mbar 5.05 m/s 344.85 Deg 0.84 µg/m3
2022-06-08 02:00 13.7 µg/m3 -0.09 µg/m3 70.69 µg/m3 34.35 µg/m3 12.59 µg/m3 23.41 °C 90.09 % 1,003.07 mbar 4.53 m/s 342.58 Deg 0.83 µg/m3
2022-06-08 01:00 10.5 µg/m3 -0.08 µg/m3 76.59 µg/m3 32.29 µg/m3 12.74 µg/m3 24.25 °C 77.31 % 1,003.32 mbar 3.47 m/s 334.72 Deg 0.81 µg/m3
2022-06-08 00:00 6.12 µg/m3 -0.09 µg/m3 83.74 µg/m3 43.1 µg/m3 19.5 µg/m3 24.61 °C 72.05 % 1,003.63 mbar 4.13 m/s 336.03 Deg 0.87 µg/m3
2022-06-07 23:00 7.86 µg/m3 -0.04 µg/m3 81.11 µg/m3 46.4 µg/m3 12.08 µg/m3 24.83 °C 66.67 % 1,004.56 mbar 2.98 m/s 320.03 Deg 1.08 µg/m3
2022-06-07 22:00 12.83 µg/m3 -0.06 µg/m3 77.78 µg/m3 50.08 µg/m3 9.74 µg/m3 25.01 °C 61.98 % 1,004.71 mbar 2.47 m/s 310.42 Deg 1.09 µg/m3
2022-06-07 21:00 19.31 µg/m3 -0.05 µg/m3 76.84 µg/m3 31.11 µg/m3 8.16 µg/m3 26.01 °C 55.7 % 1,004.38 mbar 1.65 m/s 312.77 Deg 1.48 µg/m3
2022-06-07 20:00 15.85 µg/m3 -0.09 µg/m3 86.14 µg/m3 19.1 µg/m3 9.49 µg/m3 27.25 °C 40.63 % 1,004.06 mbar 2.38 m/s 342.5 Deg 1.17 µg/m3
2022-06-07 19:00 20.02 µg/m3 -0.06 µg/m3 93.5 µg/m3 23.25 µg/m3 11.6 µg/m3 28.19 °C 39.04 % 1,003.74 mbar 2.67 m/s 254.35 Deg 1.52 µg/m3
2022-06-07 18:00 14.79 µg/m3 -0.1 µg/m3 109.17 µg/m3 28.72 µg/m3 12.52 µg/m3 28.19 °C 44.5 % 1,003.51 mbar 2.78 m/s 3.92 Deg 1.75 µg/m3
2022-06-07 17:00 7.91 µg/m3 -0.1 µg/m3 115.51 µg/m3 41.65 µg/m3 12.19 µg/m3 28.08 °C 50.36 % 1,003.73 mbar 3.46 m/s 185.78 Deg 1.41 µg/m3
2022-06-07 16:00 8.02 µg/m3 -0.15 µg/m3 113.6 µg/m3 39.28 µg/m3 8.7 µg/m3 28.07 °C 58.2 % 1,004.47 mbar 3.22 m/s 105.87 Deg 1.77 µg/m3
2022-06-07 15:00 4.9 µg/m3 -0.12 µg/m3 111.73 µg/m3 25.91 µg/m3 7.54 µg/m3 29.79 °C 46.77 % 1,004.87 mbar 2.98 m/s 186.98 Deg 1.19 µg/m3
2022-06-07 14:00 5.36 µg/m3 -0.12 µg/m3 107.48 µg/m3 19.97 µg/m3 7.97 µg/m3 29.53 °C 41.62 % 1,005.13 mbar 3.79 m/s 182.58 Deg 1.27 µg/m3
2022-06-07 13:00 10.74 µg/m3 -0.1 µg/m3 98.55 µg/m3 26.39 µg/m3 6.74 µg/m3 28.84 °C 45.91 % 1,005.31 mbar 3.91 m/s 174.08 Deg 2.22 µg/m3
2022-06-07 12:00 7.76 µg/m3 -0.07 µg/m3 96.26 µg/m3 45.95 µg/m3 6.97 µg/m3 27.73 °C 56.15 % 1,005.62 mbar 3.57 m/s 176.45 Deg 1.9 µg/m3
2022-06-07 11:00 9.07 µg/m3 -0.06 µg/m3 78.1 µg/m3 27.18 µg/m3 10.09 µg/m3 26.69 °C 70.71 % 1,006.13 mbar 3.85 m/s 192.33 Deg 2.69 µg/m3
2022-06-07 10:00 12.22 µg/m3 -0.06 µg/m3 79.13 µg/m3 27.49 µg/m3 13.17 µg/m3 29.57 °C 40.44 % 1,005.64 mbar 2.28 m/s 73.8 Deg 2.95 µg/m3
2022-06-07 09:00 13.14 µg/m3 -0.04 µg/m3 68.79 µg/m3 49.63 µg/m3 21.6 µg/m3 27.54 °C 55.29 % 1,005.16 mbar 2.73 m/s 13.1 Deg 3.64 µg/m3
2022-06-07 08:00 14.2 µg/m3 -0.03 µg/m3 62.3 µg/m3 49.39 µg/m3 6.47 µg/m3 25.78 °C 68.96 % 1,004.97 mbar 3.86 m/s 10.57 Deg 4.14 µg/m3
2022-06-07 07:00 14.16 µg/m3 -0.06 µg/m3 199.58 µg/m3 29.58 µg/m3 7.61 µg/m3 26.03 °C 59.12 % 1,004.80 mbar 3.69 m/s 265.87 Deg 2.76 µg/m3
2022-06-07 06:00 14.33 µg/m3 -0.1 µg/m3 73.27 µg/m3 21.01 µg/m3 8.14 µg/m3 27.18 °C 42.61 % 1,004.79 mbar 3.39 m/s 259.85 Deg 2.09 µg/m3
2022-06-07 05:00 8.96 µg/m3 -0.09 µg/m3 82.46 µg/m3 26.76 µg/m3 10.58 µg/m3 27.36 °C 38.69 % 1,004.90 mbar 3.79 m/s 341.75 Deg 0.8 µg/m3
2022-06-07 04:00 4.44 µg/m3 -0.04 µg/m3 74.95 µg/m3 29.42 µg/m3 14.29 µg/m3 25.89 °C 55.9 % 1,005.32 mbar 3.07 m/s 327.1 Deg 0.77 µg/m3
2022-06-07 03:00 3.34 µg/m3 -0.13 µg/m3 71.45 µg/m3 38.7 µg/m3 7.77 µg/m3 25.04 °C 66.82 % 1,005.91 mbar 3.52 m/s 322.8 Deg 0.82 µg/m3
2022-06-07 02:00 6.44 µg/m3 -0.1 µg/m3 68.06 µg/m3 36.97 µg/m3 11.56 µg/m3 26.13 °C 59.71 % 1,005.91 mbar 2.91 m/s 316.25 Deg 0.81 µg/m3
2022-06-07 01:00 7.53 µg/m3 -0.08 µg/m3 72.46 µg/m3 57.25 µg/m3 16.4 µg/m3 27.06 °C 55.01 % 1,006.03 mbar 2.93 m/s 330.17 Deg 0.81 µg/m3
2022-06-07 00:00 10.27 µg/m3 -0.09 µg/m3 71.22 µg/m3 57.59 µg/m3 18.97 µg/m3 26.56 °C 59.93 % 1,006.23 mbar 2.48 m/s 327.67 Deg 0.97 µg/m3
2022-06-06 23:00 9.79 µg/m3 -0.1 µg/m3 75.76 µg/m3 53.06 µg/m3 9.84 µg/m3 26.71 °C 56.87 % 1,006.39 mbar 2.68 m/s 322.02 Deg 1.11 µg/m3
2022-06-06 22:00 9.79 µg/m3 -0.1 µg/m3 80.57 µg/m3 55.89 µg/m3 11.16 µg/m3 27.27 °C 52.82 % 1,006.33 mbar 3.33 m/s 319.18 Deg 1.27 µg/m3
2022-06-06 21:00 11.2 µg/m3 -0.07 µg/m3 81.59 µg/m3 53.75 µg/m3 12.22 µg/m3 27.12 °C 55.65 % 1,006.20 mbar 3.81 m/s 314.52 Deg 1.51 µg/m3
2022-06-06 20:00 16.64 µg/m3 -0.09 µg/m3 79.36 µg/m3 55.05 µg/m3 10.11 µg/m3 27.57 °C 52.56 % 1,006.12 mbar 3.85 m/s 314.2 Deg 1.98 µg/m3
2022-06-06 19:00 15.8 µg/m3 -0.06 µg/m3 80.19 µg/m3 60.48 µg/m3 13.22 µg/m3 28.5 °C 47.84 % 1,006.25 mbar 3.89 m/s 320.85 Deg 2.46 µg/m3
2022-06-06 18:00 14.96 µg/m3 -0.08 µg/m3 79.39 µg/m3 61.16 µg/m3 22.15 µg/m3 28.74 °C 50.61 % 1,006.34 mbar 3.93 m/s 316.35 Deg 2.96 µg/m3
2022-06-06 17:00 14.95 µg/m3 -0.08 µg/m3 77.01 µg/m3 67.9 µg/m3 15.67 µg/m3 29.07 °C 55.19 % 1,006.64 mbar 4 m/s 314.28 Deg 3.76 µg/m3
2022-06-06 16:00 13.6 µg/m3 -0.06 µg/m3 83.63 µg/m3 72.05 µg/m3 17.54 µg/m3 29.88 °C 51.96 % 1,006.83 mbar 3.91 m/s 311.77 Deg 3.28 µg/m3
2022-06-06 15:00 12.61 µg/m3 -0.06 µg/m3 88.59 µg/m3 62.08 µg/m3 14.74 µg/m3 29.61 °C 55.67 % 1,007.02 mbar 4.62 m/s 313.2 Deg 3.1 µg/m3
2022-06-06 14:00 13.23 µg/m3 -0.06 µg/m3 87.58 µg/m3 56.66 µg/m3 13.75 µg/m3 29.97 °C 56.45 % 1,007.35 mbar 4.16 m/s 316.38 Deg 3.4 µg/m3
2022-06-06 13:00 17.49 µg/m3 -0.02 µg/m3 87.18 µg/m3 57.43 µg/m3 11.48 µg/m3 30.28 °C 56.14 % 1,007.71 mbar 3.04 m/s 298.38 Deg 4.12 µg/m3
2022-06-06 12:00 20.67 µg/m3 0.01 µg/m3 84.84 µg/m3 49.1 µg/m3 10.76 µg/m3 30.88 °C 51.51 % 1,007.83 mbar 2.75 m/s 326.43 Deg 5.26 µg/m3
2022-06-06 11:00 19.52 µg/m3 -0.03 µg/m3 83.5 µg/m3 48.66 µg/m3 8.55 µg/m3 31.06 °C 47.01 % 1,007.70 mbar 2.84 m/s 307.17 Deg 4.42 µg/m3
2022-06-06 10:00 21.29 µg/m3 0.02 µg/m3 77.7 µg/m3 43.08 µg/m3 10.39 µg/m3 29.87 °C 51.92 % 1,007.74 mbar 3.68 m/s 312.53 Deg 5.28 µg/m3
2022-06-06 09:00 23.1 µg/m3 -0 µg/m3 75 µg/m3 52.31 µg/m3 15.94 µg/m3 29.13 °C 52.28 % 1,007.83 mbar 3.01 m/s 314.9 Deg 5.31 µg/m3
2022-06-06 08:00 27.57 µg/m3 -0.01 µg/m3 68.73 µg/m3 57.1 µg/m3 15.68 µg/m3 27.47 °C 57.93 % 1,008.17 mbar 3.34 m/s 311.3 Deg 6.67 µg/m3
2022-06-06 07:00 28.06 µg/m3 -0.03 µg/m3 63.13 µg/m3 57.44 µg/m3 20.98 µg/m3 26.03 °C 63.26 % 1,008.29 mbar 3.13 m/s 306.78 Deg 5.3 µg/m3
2022-06-06 06:00 24.01 µg/m3 -0.02 µg/m3 64.75 µg/m3 50.33 µg/m3 15.62 µg/m3 24.74 °C 72.6 % 1,008.34 mbar 3.16 m/s 310.63 Deg 3.61 µg/m3
2022-06-06 05:00 13.21 µg/m3 -0.02 µg/m3 76.17 µg/m3 50.45 µg/m3 10.83 µg/m3 25.15 °C 68.18 % 1,008.11 mbar 2.09 m/s 292.58 Deg 1.18 µg/m3
2022-06-06 04:00 7.72 µg/m3 0 µg/m3 87 µg/m3 44.64 µg/m3 14.93 µg/m3 26 °C 57.76 % 1,007.93 mbar 2.05 m/s 304 Deg 0.81 µg/m3
2022-06-06 03:00 6.66 µg/m3 -0.01 µg/m3 88.56 µg/m3 44.47 µg/m3 16.45 µg/m3 26.34 °C 54.8 % 1,008.17 mbar 1.17 m/s 312.58 Deg 0.71 µg/m3
2022-06-06 02:00 4.77 µg/m3 -0.03 µg/m3 89.43 µg/m3 46.66 µg/m3 13.79 µg/m3 26.09 °C 57.48 % 1,008.38 mbar 1.77 m/s 310.97 Deg 0.72 µg/m3
2022-06-06 01:00 9.11 µg/m3 -0.03 µg/m3 88.93 µg/m3 39.59 µg/m3 16.54 µg/m3 26.55 °C 54.76 % 1,008.79 mbar 2.15 m/s 301.87 Deg 1.04 µg/m3
2022-06-06 00:00 18.45 µg/m3 0 µg/m3 75.34 µg/m3 32.63 µg/m3 11.49 µg/m3 26.73 °C 55.05 % 1,009.24 mbar 1.68 m/s 305.22 Deg 1 µg/m3
2022-06-05 23:00 27.25 µg/m3 0 µg/m3 63.44 µg/m3 50.32 µg/m3 18.34 µg/m3 27.86 °C 46.77 % 1,009.32 mbar 1.34 m/s 326.78 Deg 1.26 µg/m3
2022-06-05 22:00 31.05 µg/m3 0.05 µg/m3 60.35 µg/m3 59.09 µg/m3 22.91 µg/m3 28.11 °C 49.55 % 1,009.37 mbar 1.15 m/s 319.95 Deg 2.1 µg/m3
2022-06-05 21:00 36.79 µg/m3 0.05 µg/m3 55.07 µg/m3 61.94 µg/m3 16.59 µg/m3 27.51 °C 61.98 % 1,009.19 mbar 1.1 m/s 298.13 Deg 2.14 µg/m3
2022-06-05 20:00 37.08 µg/m3 0.01 µg/m3 66.34 µg/m3 52.52 µg/m3 18.54 µg/m3 27.42 °C 64.86 % 1,009.25 mbar 1.93 m/s 178.92 Deg 2.81 µg/m3
2022-06-05 19:00 27.44 µg/m3 0.06 µg/m3 77.87 µg/m3 45.8 µg/m3 15.12 µg/m3 28.67 °C 54.61 % 1,009.09 mbar 1.87 m/s 235.1 Deg 2.52 µg/m3
2022-06-05 18:00 11.8 µg/m3 0.08 µg/m3 95.23 µg/m3 29.04 µg/m3 9.84 µg/m3 29.32 °C 57.32 % 1,008.84 mbar 2.05 m/s 139.23 Deg 1.42 µg/m3
2022-06-05 17:00 15.36 µg/m3 0.06 µg/m3 95.97 µg/m3 26.99 µg/m3 5.38 µg/m3 33.85 °C 30.13 % 1,008.81 mbar 2.1 m/s 256.1 Deg 2.01 µg/m3
2022-06-05 16:00 8.71 µg/m3 0.08 µg/m3 90.57 µg/m3 18.33 µg/m3 5.13 µg/m3 33.67 °C 24.29 % 1,009.27 mbar 2.9 m/s 96.2 Deg 1.73 µg/m3
2022-06-05 15:00 5.95 µg/m3 0.06 µg/m3 94.04 µg/m3 16.41 µg/m3 5.56 µg/m3 32.79 °C 27.41 % 1,009.76 mbar 3.9 m/s 265.62 Deg 1.6 µg/m3
2022-06-05 14:00 5.02 µg/m3 0.07 µg/m3 93.71 µg/m3 16.27 µg/m3 5.86 µg/m3 33 °C 25.3 % 1,009.86 mbar 3.72 m/s 180.45 Deg 1.34 µg/m3
2022-06-05 13:00 5.61 µg/m3 0.05 µg/m3 97.4 µg/m3 19.53 µg/m3 7.3 µg/m3 32.68 °C 26.99 % 1,010.06 mbar 3.5 m/s 95.68 Deg 1.57 µg/m3
2022-06-05 12:00 6.63 µg/m3 0.04 µg/m3 92.26 µg/m3 29.21 µg/m3 10.91 µg/m3 32.88 °C 26.12 % 1,010.04 mbar 3.56 m/s 182.25 Deg 1.74 µg/m3
2022-06-05 11:00 9.92 µg/m3 0.03 µg/m3 93.73 µg/m3 25.62 µg/m3 10.46 µg/m3 32.02 °C 30.6 % 1,009.87 mbar 4.66 m/s 347.42 Deg 2.3 µg/m3
2022-06-05 10:00 14.74 µg/m3 0.07 µg/m3 93.59 µg/m3 27.79 µg/m3 14.17 µg/m3 30.79 °C 38.56 % 1,009.95 mbar 4.13 m/s 349.43 Deg 3.11 µg/m3
2022-06-05 09:00 17.48 µg/m3 0.07 µg/m3 89.03 µg/m3 32.4 µg/m3 8.35 µg/m3 29.96 °C 41.43 % 1,010.25 mbar 3.26 m/s 348.02 Deg 3.14 µg/m3
2022-06-05 08:00 17.6 µg/m3 0.09 µg/m3 84.84 µg/m3 37.97 µg/m3 11.22 µg/m3 28.66 °C 43.86 % 1,010.38 mbar 2.98 m/s 348.52 Deg 2.91 µg/m3
2022-06-05 07:00 18.15 µg/m3 0.07 µg/m3 83.33 µg/m3 36.24 µg/m3 11.47 µg/m3 27.25 °C 47.62 % 1,009.98 mbar 2.57 m/s 338.07 Deg 2.58 µg/m3
2022-06-05 06:00 39.36 µg/m3 0.11 µg/m3 64.82 µg/m3 26.8 µg/m3 15.74 µg/m3 26.36 °C 41.69 % 1,009.70 mbar 1.37 m/s 316.58 Deg 2.31 µg/m3
2022-06-05 05:00 26.97 µg/m3 0.53 µg/m3 73.99 µg/m3 33.98 µg/m3 7.4 µg/m3 26.72 °C 38.17 % 1,009.33 mbar 1.8 m/s 332.3 Deg 1.31 µg/m3
2022-06-05 04:00 48.32 µg/m3 0.13 µg/m3 61.9 µg/m3 28.93 µg/m3 6.61 µg/m3 26.89 °C 37.18 % 1,009.12 mbar 1.85 m/s 340.62 Deg 3.27 µg/m3
2022-06-05 03:00 17.15 µg/m3 0.06 µg/m3 83.09 µg/m3 34.77 µg/m3 7.61 µg/m3 27.28 °C 37.07 % 1,009.33 mbar 1.16 m/s 316.2 Deg 0.7 µg/m3
2022-06-05 02:00 15.39 µg/m3 0.03 µg/m3 82.11 µg/m3 27.74 µg/m3 9.99 µg/m3 27.04 °C 35.03 % 1,009.95 mbar 1.36 m/s 287.75 Deg 0.71 µg/m3
2022-06-05 01:00 21 µg/m3 0.06 µg/m3 84.09 µg/m3 39.82 µg/m3 13.06 µg/m3 27.66 °C 33.25 % 1,010.42 mbar 1.95 m/s 326.45 Deg 0.82 µg/m3
2022-06-05 00:00 35.12 µg/m3 0.04 µg/m3 62.36 µg/m3 43.37 µg/m3 21.81 µg/m3 28.03 °C 34.52 % 1,010.36 mbar 1.45 m/s 329.12 Deg 1.42 µg/m3
2022-06-04 23:00 31.6 µg/m3 0.04 µg/m3 61.04 µg/m3 50.19 µg/m3 18.72 µg/m3 28.35 °C 34.48 % 1,010.32 mbar 1.4 m/s 313 Deg 1.38 µg/m3
2022-06-04 22:00 35.83 µg/m3 0.06 µg/m3 56.07 µg/m3 54.25 µg/m3 14.19 µg/m3 28.36 °C 34.49 % 1,010.59 mbar 1.43 m/s 309.07 Deg 1.87 µg/m3
2022-06-04 21:00 43.79 µg/m3 0.08 µg/m3 53.59 µg/m3 67.04 µg/m3 22.06 µg/m3 28.62 °C 38.29 % 1,010.56 mbar 1.25 m/s 302.87 Deg 2.14 µg/m3
2022-06-04 20:00 52.2 µg/m3 0.07 µg/m3 55.71 µg/m3 50.49 µg/m3 17.52 µg/m3 28.11 °C 54.08 % 1,010.33 mbar 1.87 m/s 347 Deg 3.01 µg/m3
2022-06-04 19:00 20.6 µg/m3 0.05 µg/m3 81.89 µg/m3 32.51 µg/m3 11.13 µg/m3 28.68 °C 51.91 % 1,009.94 mbar 1.17 m/s 138.67 Deg 1.45 µg/m3
2022-06-04 18:00 11.61 µg/m3 0.06 µg/m3 99.99 µg/m3 43.71 µg/m3 11.5 µg/m3 30.55 °C 38.92 % 1,009.65 mbar 1.07 m/s 269.6 Deg 1.34 µg/m3
2022-06-04 17:00 8.99 µg/m3 0.03 µg/m3 96.53 µg/m3 30.76 µg/m3 9.48 µg/m3 31.08 °C 34.2 % 1,009.72 mbar 1.63 m/s 229.48 Deg 1.39 µg/m3
2022-06-04 16:00 24 µg/m3 0.05 µg/m3 108.7 µg/m3 35.39 µg/m3 12.38 µg/m3 31.36 °C 34.86 % 1,009.81 mbar 2.5 m/s 146.62 Deg 3.21 µg/m3
2022-06-04 15:00 22.4 µg/m3 0.11 µg/m3 93.32 µg/m3 21.7 µg/m3 5.04 µg/m3 31.63 °C 34.7 % 1,010.02 mbar 2.77 m/s 151.5 Deg 4.77 µg/m3
2022-06-04 14:00 10.27 µg/m3 0.16 µg/m3 88.72 µg/m3 17.28 µg/m3 6.34 µg/m3 32.77 °C 22.97 % 1,010.27 mbar 2.97 m/s 179.42 Deg 2.38 µg/m3
2022-06-04 13:00 12.9 µg/m3 0.17 µg/m3 88.46 µg/m3 24.06 µg/m3 8.04 µg/m3 32.11 °C 24.18 % 1,010.56 mbar 3.25 m/s 182.55 Deg 2.96 µg/m3
2022-06-04 12:00 16.26 µg/m3 0.22 µg/m3 86.52 µg/m3 27.75 µg/m3 8.93 µg/m3 32.04 °C 23.42 % 1,010.66 mbar 3.06 m/s 176.73 Deg 3.82 µg/m3
2022-06-04 11:00 25.45 µg/m3 0.21 µg/m3 80.71 µg/m3 44.01 µg/m3 13.9 µg/m3 31.06 °C 27.59 % 1,010.77 mbar 2.58 m/s 342.02 Deg 5.94 µg/m3
2022-06-04 10:00 26.54 µg/m3 0.19 µg/m3 79.27 µg/m3 41.11 µg/m3 14.49 µg/m3 29.42 °C 32.86 % 1,010.74 mbar 3 m/s 254.95 Deg 6.18 µg/m3
2022-06-04 09:00 58.88 µg/m3 0.36 µg/m3 55.83 µg/m3 47.74 µg/m3 11.29 µg/m3 30.03 °C 31.04 % 1,010.44 mbar 2.38 m/s 180.1 Deg 19.75 µg/m3
2022-06-04 08:00 59.28 µg/m3 0.35 µg/m3 51.83 µg/m3 55.84 µg/m3 9.04 µg/m3 28.6 °C 32.13 % 1,010.32 mbar 2.17 m/s 350.7 Deg 16.28 µg/m3
2022-06-04 07:00 76.13 µg/m3 0.46 µg/m3 28.87 µg/m3 45.95 µg/m3 10.02 µg/m3 26.66 °C 35.6 % 1,010.03 mbar 2.12 m/s 334.52 Deg 22.17 µg/m3
2022-06-04 06:00 65.02 µg/m3 0.17 µg/m3 33.88 µg/m3 37.84 µg/m3 8.37 µg/m3 25.62 °C 35.95 % 1,009.61 mbar 1.76 m/s 332 Deg 11.81 µg/m3
2022-06-04 05:00 30.03 µg/m3 0.08 µg/m3 58.19 µg/m3 30.91 µg/m3 9.99 µg/m3 25.18 °C 35.97 % 1,009.29 mbar 1.61 m/s 325.07 Deg 2.02 µg/m3
2022-06-04 04:00 21.82 µg/m3 0.09 µg/m3 61.54 µg/m3 30.16 µg/m3 9.49 µg/m3 25.31 °C 35.6 % 1,009.05 mbar 1.64 m/s 324.17 Deg 0.94 µg/m3
2022-06-04 03:00 26.58 µg/m3 0.03 µg/m3 60.46 µg/m3 31.92 µg/m3 6.44 µg/m3 25.96 °C 35.8 % 1,009.36 mbar 1.8 m/s 327.7 Deg 0.87 µg/m3
2022-06-04 02:00 48.64 µg/m3 0.01 µg/m3 43.3 µg/m3 38.59 µg/m3 8.33 µg/m3 25.63 °C 39.02 % 1,009.73 mbar 1.6 m/s 321.57 Deg 1.25 µg/m3
2022-06-04 01:00 61.75 µg/m3 0.06 µg/m3 30.39 µg/m3 37.6 µg/m3 7.89 µg/m3 25.69 °C 42.37 % 1,009.93 mbar 1.52 m/s 324.48 Deg 2.27 µg/m3
2022-06-04 00:00 74.12 µg/m3 -0 µg/m3 31.08 µg/m3 23.73 µg/m3 8.94 µg/m3 26.44 °C 38.79 % 1,010.21 mbar 1.97 m/s 341.47 Deg 2.02 µg/m3
2022-06-03 23:00 61.12 µg/m3 -0.04 µg/m3 46.7 µg/m3 28.29 µg/m3 12.99 µg/m3 26.49 °C 39.19 % 1,010.42 mbar 2.19 m/s 341.07 Deg 1.91 µg/m3
2022-06-03 22:00 47.06 µg/m3 -0.03 µg/m3 60.98 µg/m3 42.52 µg/m3 16.4 µg/m3 26.11 °C 47.56 % 1,010.42 mbar 2.49 m/s 347.97 Deg 2.08 µg/m3
2022-06-03 21:00 28.32 µg/m3 -0.02 µg/m3 80.87 µg/m3 56.56 µg/m3 10.55 µg/m3 25.46 °C 60.81 % 1,010.27 mbar 2.52 m/s 263.1 Deg 1.47 µg/m3
2022-06-03 20:00 33.87 µg/m3 -0.02 µg/m3 79.2 µg/m3 47.2 µg/m3 14.9 µg/m3 25.85 °C 57.34 % 1,009.89 mbar 2.49 m/s 186.87 Deg 1.76 µg/m3
2022-06-03 19:00 21.43 µg/m3 -0.06 µg/m3 87.96 µg/m3 34.7 µg/m3 11.72 µg/m3 26.79 °C 51.35 % 1,009.90 mbar 2.73 m/s 11.93 Deg 2.18 µg/m3
2022-06-03 18:00 13.31 µg/m3 -0.05 µg/m3 93.39 µg/m3 41 µg/m3 15.37 µg/m3 27.65 °C 45.75 % 1,009.76 mbar 3.07 m/s 15.03 Deg 2.03 µg/m3
2022-06-03 17:00 16.44 µg/m3 -0.04 µg/m3 108.26 µg/m3 36.58 µg/m3 13.28 µg/m3 28.62 °C 47.11 % 1,009.66 mbar 2.54 m/s 97.98 Deg 2.17 µg/m3
2022-06-03 16:00 19.21 µg/m3 -0.02 µg/m3 105.85 µg/m3 38.7 µg/m3 11.42 µg/m3 30.11 °C 38 % 1,009.85 mbar 1.98 m/s 175.83 Deg 3.04 µg/m3
2022-06-03 15:00 19.35 µg/m3 -0.03 µg/m3 122.1 µg/m3 38.79 µg/m3 11.37 µg/m3 29.33 °C 44.89 % 1,010.13 mbar 2.62 m/s 166.55 Deg 2.74 µg/m3
2022-06-03 14:00 19.55 µg/m3 -0.03 µg/m3 120.97 µg/m3 42.31 µg/m3 16.25 µg/m3 29.35 °C 44.5 % 1,010.39 mbar 2.57 m/s 151.84 Deg 2.91 µg/m3
2022-06-03 13:00 30.89 µg/m3 -0.01 µg/m3 106.38 µg/m3 34.37 µg/m3 8.6 µg/m3 29.48 °C 44.58 % 1,010.41 mbar 2.65 m/s 176.85 Deg 5.08 µg/m3
2022-06-03 12:00 19.64 µg/m3 0 µg/m3 99.89 µg/m3 41.78 µg/m3 12.81 µg/m3 29.9 °C 36.31 % 1,010.52 mbar 2.37 m/s 101.07 Deg 3.83 µg/m3
2022-06-03 11:00 26.97 µg/m3 0.05 µg/m3 92.26 µg/m3 38.43 µg/m3 9.74 µg/m3 29.02 °C 39.98 % 1,010.48 mbar 2.95 m/s 13.68 Deg 6.56 µg/m3
2022-06-03 10:00 17.87 µg/m3 0.03 µg/m3 94.41 µg/m3 37.21 µg/m3 14.11 µg/m3 29.12 °C 37.16 % 1,010.14 mbar 2.18 m/s 95.65 Deg 3.94 µg/m3
2022-06-03 09:00 17.47 µg/m3 0.08 µg/m3 92.21 µg/m3 60.2 µg/m3 17.72 µg/m3 28.44 °C 38.36 % 1,009.86 mbar 1.39 m/s 180.28 Deg 11.04 µg/m3
2022-06-03 08:00 29.99 µg/m3 0.07 µg/m3 78.01 µg/m3 76.47 µg/m3 14.07 µg/m3 27.38 °C 39.06 % 1,009.76 mbar 1.95 m/s 22.13 Deg 6.59 µg/m3
2022-06-03 07:00 68.79 µg/m3 0.29 µg/m3 35.68 µg/m3 50.23 µg/m3 13.35 µg/m3 25.74 °C 46.03 % 1,009.44 mbar 1.51 m/s 187.05 Deg 23.34 µg/m3
2022-06-03 06:00 79.49 µg/m3 0.29 µg/m3 18.49 µg/m3 29.58 µg/m3 9.93 µg/m3 24.4 °C 46.85 % 1,009.23 mbar 1.38 m/s 335.7 Deg 25.48 µg/m3
2022-06-03 05:00 32.59 µg/m3 0.02 µg/m3 51.76 µg/m3 33.66 µg/m3 13.61 µg/m3 23.91 °C 48.17 % 1,008.98 mbar 1.66 m/s 317.05 Deg 3.01 µg/m3
2022-06-03 04:00 40.4 µg/m3 0.12 µg/m3 30.92 µg/m3 37.1 µg/m3 6.67 µg/m3 23.22 °C 56.34 % 1,009.07 mbar 0.94 m/s 314.28 Deg 1.65 µg/m3
2022-06-03 03:00 41.09 µg/m3 -0.01 µg/m3 38.01 µg/m3 44.18 µg/m3 8.37 µg/m3 23.42 °C 61.03 % 1,009.17 mbar 1.44 m/s 342.27 Deg 1.51 µg/m3
2022-06-03 02:00 28.69 µg/m3 -0.02 µg/m3 59.48 µg/m3 42.14 µg/m3 10.67 µg/m3 24.22 °C 58.75 % 1,009.27 mbar 1.41 m/s 341.9 Deg 1.24 µg/m3
2022-06-03 01:00 37.6 µg/m3 -0.09 µg/m3 52.22 µg/m3 58.09 µg/m3 13.84 µg/m3 23.89 °C 68.89 % 1,009.40 mbar 1.45 m/s 313.43 Deg 0.95 µg/m3
2022-06-03 00:00 8.52 µg/m3 -0.07 µg/m3 97.06 µg/m3 69.22 µg/m3 22.91 µg/m3 23.51 °C 72.28 % 1,009.73 mbar 0.6 m/s 228.03 Deg 0.74 µg/m3
2022-06-02 23:00 13.18 µg/m3 -0.07 µg/m3 89.44 µg/m3 77.15 µg/m3 21.26 µg/m3 23.35 °C 79.26 % 1,009.66 mbar 1.5 m/s 145.82 Deg 0.81 µg/m3
2022-06-02 22:00 36.51 µg/m3 -0.05 µg/m3 65.05 µg/m3 75.21 µg/m3 12.11 µg/m3 24.13 °C 67.01 % 1,009.83 mbar 0.94 m/s 148.58 Deg 1.2 µg/m3
2022-06-02 21:00 29.23 µg/m3 -0.04 µg/m3 76.22 µg/m3 68.35 µg/m3 9.29 µg/m3 24.63 °C 60.62 % 1,009.56 mbar 0.88 m/s 171.95 Deg 1.44 µg/m3
2022-06-02 20:00 20.26 µg/m3 -0.05 µg/m3 90.76 µg/m3 56.58 µg/m3 5.59 µg/m3 25.08 °C 57.42 % 1,009.08 mbar 0.87 m/s 145.89 Deg 1.13 µg/m3
2022-06-02 19:00 11.9 µg/m3 -0.06 µg/m3 99.54 µg/m3 46.58 µg/m3 4.5 µg/m3 26.1 °C 49.74 % 1,008.52 mbar 1.7 m/s 177.47 Deg 0.92 µg/m3
2022-06-02 18:00 4.28 µg/m3 -0.09 µg/m3 107.86 µg/m3 48.26 µg/m3 4.48 µg/m3 26.63 °C 46.05 % 1,008.20 mbar 2.85 m/s 169.4 Deg 0.91 µg/m3
2022-06-02 17:00 6.91 µg/m3 -0.08 µg/m3 101.3 µg/m3 31.25 µg/m3 5.48 µg/m3 27.46 °C 42.76 % 1,007.93 mbar 3.71 m/s 159.7 Deg 1.33 µg/m3
2022-06-02 16:00 5.45 µg/m3 -0.1 µg/m3 100.04 µg/m3 17.03 µg/m3 4.87 µg/m3 28.23 °C 39.94 % 1,008.24 mbar 3.53 m/s 146.53 Deg 1.34 µg/m3
2022-06-02 15:00 3.88 µg/m3 -0.09 µg/m3 100.63 µg/m3 20.03 µg/m3 4.96 µg/m3 28.42 °C 38.98 % 1,008.41 mbar 3.79 m/s 135.83 Deg 1.12 µg/m3
2022-06-02 14:00 9.46 µg/m3 -0.1 µg/m3 97.73 µg/m3 15.89 µg/m3 4.21 µg/m3 27.66 °C 42.74 % 1,008.38 mbar 4.58 m/s 140.2 Deg 2.06 µg/m3
2022-06-02 13:00 7.49 µg/m3 -0.1 µg/m3 98.4 µg/m3 18.12 µg/m3 4.95 µg/m3 27.25 °C 48.31 % 1,008.66 mbar 4.57 m/s 128.25 Deg 1.82 µg/m3
2022-06-02 12:00 15.02 µg/m3 -0.07 µg/m3 83.43 µg/m3 13.14 µg/m3 6.45 µg/m3 26.2 °C 64.51 % 1,008.99 mbar 3.92 m/s 162.38 Deg 3.74 µg/m3
2022-06-02 11:00 22.53 µg/m3 -0.06 µg/m3 87.22 µg/m3 13.96 µg/m3 7.35 µg/m3 26.87 °C 56.76 % 1,008.87 mbar 3.77 m/s 121.48 Deg 4.72 µg/m3
2022-06-02 10:00 22.52 µg/m3 -0.08 µg/m3 82.44 µg/m3 19.44 µg/m3 9.59 µg/m3 27.2 °C 57.1 % 1,008.77 mbar 2.3 m/s 194.72 Deg 7.16 µg/m3
2022-06-02 09:00 14.03 µg/m3 -0.07 µg/m3 103.65 µg/m3 27.87 µg/m3 13.01 µg/m3 27.4 °C 48.7 % 1,008.52 mbar 2.01 m/s 197.27 Deg 2.29 µg/m3
2022-06-02 08:00 22.38 µg/m3 -0.05 µg/m3 77.04 µg/m3 48.44 µg/m3 21.79 µg/m3 26.21 °C 59.12 % 1,008.27 mbar 1.66 m/s 192.19 Deg 5.01 µg/m3
2022-06-02 07:00 32.61 µg/m3 0 µg/m3 38.82 µg/m3 76.99 µg/m3 37.1 µg/m3 23.55 °C 91.08 % 1,008.08 mbar 1.53 m/s 31.88 Deg 8.83 µg/m3
2022-06-02 06:00 42.35 µg/m3 0.06 µg/m3 19.33 µg/m3 65.9 µg/m3 24.39 µg/m3 22.77 °C 99.06 % 1,007.84 mbar 1.89 m/s 32.72 Deg 12.43 µg/m3
2022-06-02 05:00 34.81 µg/m3 0.03 µg/m3 25.45 µg/m3 54.35 µg/m3 19.32 µg/m3 23.05 °C 89.97 % 1,007.44 mbar 1.26 m/s 102.18 Deg 4.12 µg/m3
2022-06-02 04:00 23.43 µg/m3 -0.02 µg/m3 41.67 µg/m3 57.7 µg/m3 19.43 µg/m3 23.12 °C 90.65 % 1,007.08 mbar 1.31 m/s 191.52 Deg 1.61 µg/m3
2022-06-02 03:00 22.93 µg/m3 -0.04 µg/m3 46.46 µg/m3 52.52 µg/m3 13.15 µg/m3 23.48 °C 85.75 % 1,007.35 mbar 1.03 m/s 21.95 Deg 1.43 µg/m3
2022-06-02 02:00 14.78 µg/m3 -0.08 µg/m3 59.3 µg/m3 26.66 µg/m3 16.9 µg/m3 23.85 °C 81.28 % 1,007.52 mbar 0.66 m/s 111.31 Deg 0.89 µg/m3
2022-06-02 01:00 22.61 µg/m3 -0.02 µg/m3 49.25 µg/m3 25.67 µg/m3 9.58 µg/m3 24.47 °C 69.93 % 1,007.60 mbar 0.82 m/s 132.77 Deg 1.01 µg/m3
2022-06-02 00:00 17.27 µg/m3 -0.09 µg/m3 70.37 µg/m3 37.22 µg/m3 12.02 µg/m3 24.86 °C 66.59 % 1,007.89 mbar 0.68 m/s 271.13 Deg 0.84 µg/m3
2022-06-01 23:00 8.16 µg/m3 -0.08 µg/m3 76.27 µg/m3 62.5 µg/m3 16.9 µg/m3 24.07 °C 74.21 % 1,008.15 mbar 0.52 m/s 207.87 Deg 0.81 µg/m3
2022-06-01 22:00 7.51 µg/m3 -0.07 µg/m3 77.9 µg/m3 84.98 µg/m3 24.71 µg/m3 24.08 °C 81.32 % 1,008.13 mbar 0.99 m/s 205.09 Deg 0.78 µg/m3
2022-06-01 21:00 4.57 µg/m3 -0.03 µg/m3 74.38 µg/m3 88.92 µg/m3 18.91 µg/m3 24.74 °C 79.19 % 1,007.89 mbar 1.26 m/s 143.4 Deg 0.67 µg/m3
2022-06-01 20:00 5.7 µg/m3 -0.09 µg/m3 94.01 µg/m3 59.46 µg/m3 12.71 µg/m3 26.24 °C 56.81 % 1,007.35 mbar 1.23 m/s 121.15 Deg 1.09 µg/m3
2022-06-01 19:00 6.76 µg/m3 -0.07 µg/m3 103.01 µg/m3 41.27 µg/m3 8.27 µg/m3 27.46 °C 43.57 % 1,006.79 mbar 2.1 m/s 151.07 Deg 0.79 µg/m3
2022-06-01 18:00 4.43 µg/m3 -0.05 µg/m3 99.35 µg/m3 37.06 µg/m3 7.9 µg/m3 28.97 °C 36.84 % 1,006.52 mbar 2.47 m/s 120.88 Deg 0.87 µg/m3
2022-06-01 17:00 6.03 µg/m3 -0.1 µg/m3 92.67 µg/m3 28.6 µg/m3 11.35 µg/m3 29.75 °C 35.16 % 1,006.82 mbar 2.28 m/s 167.22 Deg 1.14 µg/m3
2022-06-01 16:00 3.05 µg/m3 -0.05 µg/m3 91.56 µg/m3 38.03 µg/m3 12.54 µg/m3 30.43 °C 35.24 % 1,007.15 mbar 2.58 m/s 187.78 Deg 1.03 µg/m3
2022-06-01 15:00 20.99 µg/m3 -0.05 µg/m3 71.11 µg/m3 31.12 µg/m3 5.74 µg/m3 29.36 °C 50.99 % 1,007.44 mbar 2.52 m/s 164.32 Deg 5.3 µg/m3
2022-06-01 14:00 10.45 µg/m3 -0.05 µg/m3 76.2 µg/m3 38.22 µg/m3 6.2 µg/m3 29.47 °C 54.86 % 1,007.57 mbar 2.44 m/s 154.33 Deg 2.89 µg/m3
2022-06-01 13:00 5.42 µg/m3 -0.02 µg/m3 73.9 µg/m3 41.52 µg/m3 9.51 µg/m3 28.32 °C 59.39 % 1,007.97 mbar 2.91 m/s 162.77 Deg 1.92 µg/m3
2022-06-01 12:00 9.49 µg/m3 -0.03 µg/m3 76.61 µg/m3 39.12 µg/m3 13.47 µg/m3 29.69 °C 52.22 % 1,008.31 mbar 2.18 m/s 158.7 Deg 2.54 µg/m3
2022-06-01 11:00 11.64 µg/m3 -0.01 µg/m3 66.94 µg/m3 39.23 µg/m3 17.32 µg/m3 28.28 °C 59.36 % 1,008.37 mbar 2.52 m/s 139.73 Deg 3.49 µg/m3
2022-06-01 10:00 19.59 µg/m3 0.02 µg/m3 62.28 µg/m3 52.51 µg/m3 20.71 µg/m3 27.33 °C 60.08 % 1,008.09 mbar 2.09 m/s 140.43 Deg 5.73 µg/m3
2022-06-01 09:00 0 µg/m3 0 µg/m3 0 µg/m3 52.77 µg/m3 13.49 µg/m3 26.86 °C 59.38 % 1,007.72 mbar 2.15 m/s 176.38 Deg 0 µg/m3
2022-06-01 08:00 52.41 µg/m3 0.16 µg/m3 35.96 µg/m3 73.24 µg/m3 12.88 µg/m3 27.24 °C 53.53 % 1,007.70 mbar 1.56 m/s 208.85 Deg 17.74 µg/m3
2022-06-01 07:00 55.48 µg/m3 0.2 µg/m3 23.91 µg/m3 54.3 µg/m3 11.58 µg/m3 24.96 °C 61.95 % 1,007.61 mbar 1.24 m/s 20.15 Deg 21.7 µg/m3
2022-06-01 06:00 55.86 µg/m3 0.08 µg/m3 29.69 µg/m3 30.29 µg/m3 3.87 µg/m3 24.88 °C 52.05 % 1,007.13 mbar 1.21 m/s 196.1 Deg 13.76 µg/m3
2022-06-01 05:00 18.84 µg/m3 -0.07 µg/m3 53.43 µg/m3 16.34 µg/m3 4.87 µg/m3 23.79 °C 58.69 % 1,007.07 mbar 1.27 m/s 253.37 Deg 1.38 µg/m3
2022-06-01 04:00 2.01 µg/m3 -0.04 µg/m3 68.33 µg/m3 11.21 µg/m3 6.85 µg/m3 23.66 °C 59.94 % 1,007.06 mbar 2.53 m/s 224.35 Deg 0.7 µg/m3
2022-06-01 03:00 2.43 µg/m3 -0.11 µg/m3 69.07 µg/m3 13.83 µg/m3 7.29 µg/m3 24.47 °C 54.45 % 1,007.33 mbar 2.69 m/s 231.87 Deg 0.76 µg/m3
2022-06-01 02:00 1.72 µg/m3 -0.08 µg/m3 65.67 µg/m3 21 µg/m3 7.82 µg/m3 24.17 °C 55.81 % 1,007.65 mbar 2.76 m/s 216.6 Deg 0.8 µg/m3
2022-06-01 01:00 2.84 µg/m3 -0.05 µg/m3 62.23 µg/m3 26.73 µg/m3 8 µg/m3 23.61 °C 65.43 % 1,008.03 mbar 2.86 m/s 215.32 Deg 0.87 µg/m3
2022-06-01 00:00 4.22 µg/m3 -0.08 µg/m3 57.9 µg/m3 31.64 µg/m3 9.61 µg/m3 23.23 °C 74.65 % 1,008.58 mbar 3.51 m/s 211.32 Deg 0.92 µg/m3
2022-05-31 23:00 9.11 µg/m3 -0.07 µg/m3 52.68 µg/m3 49.53 µg/m3 13.48 µg/m3 23.16 °C 78.27 % 1,008.67 mbar 3.43 m/s 208.3 Deg 1.1 µg/m3
2022-05-31 22:00 27.38 µg/m3 -0.03 µg/m3 38.14 µg/m3 69.87 µg/m3 15.91 µg/m3 23.15 °C 82.48 % 1,008.73 mbar 2.4 m/s 182.55 Deg 1.48 µg/m3
2022-05-31 21:00 34.31 µg/m3 -0.04 µg/m3 31.49 µg/m3 82.69 µg/m3 18.38 µg/m3 23.3 °C 85.74 % 1,008.45 mbar 2.51 m/s 177.38 Deg 1.41 µg/m3
2022-05-31 20:00 24.36 µg/m3 -0.03 µg/m3 46.06 µg/m3 57.82 µg/m3 7.22 µg/m3 24.68 °C 65.92 % 1,007.95 mbar 1.94 m/s 176.47 Deg 1.45 µg/m3
2022-05-31 19:00 4.53 µg/m3 -0.03 µg/m3 68.21 µg/m3 32.19 µg/m3 5.99 µg/m3 26.82 °C 44.44 % 1,007.70 mbar 2.34 m/s 217.28 Deg 0.97 µg/m3
2022-05-31 18:00 4.58 µg/m3 -0.04 µg/m3 71.99 µg/m3 24.65 µg/m3 6.51 µg/m3 28.44 °C 39.08 % 1,007.37 mbar 2.89 m/s 220.58 Deg 1.26 µg/m3
2022-05-31 17:00 4.31 µg/m3 -0.07 µg/m3 74.19 µg/m3 25.36 µg/m3 5.9 µg/m3 28.98 °C 38.89 % 1,007.50 mbar 2.94 m/s 220.67 Deg 1.44 µg/m3
2022-05-31 16:00 5.01 µg/m3 -0.08 µg/m3 76.37 µg/m3 13.96 µg/m3 6.15 µg/m3 29.42 °C 39.9 % 1,007.73 mbar 3.02 m/s 204.52 Deg 1.59 µg/m3
2022-05-31 15:00 6.38 µg/m3 -0.05 µg/m3 80.34 µg/m3 9.45 µg/m3 6.59 µg/m3 29.2 °C 40.91 % 1,007.91 mbar 3.68 m/s 203.13 Deg 1.97 µg/m3
2022-05-31 14:00 15.49 µg/m3 -0.09 µg/m3 72.09 µg/m3 9.27 µg/m3 7.56 µg/m3 28.5 °C 45.27 % 1,008.13 mbar 3.94 m/s 198.88 Deg 4.61 µg/m3
2022-05-31 13:00 28.34 µg/m3 -0.03 µg/m3 60.89 µg/m3 10.65 µg/m3 7.41 µg/m3 27.16 °C 53.91 % 1,008.01 mbar 5.32 m/s 178.43 Deg 9.56 µg/m3
2022-05-31 12:00 25.78 µg/m3 -0.02 µg/m3 63.38 µg/m3 16.46 µg/m3 8.05 µg/m3 26.26 °C 59.56 % 1,008.37 mbar 5.07 m/s 187.72 Deg 8.24 µg/m3
2022-05-31 11:00 25.58 µg/m3 -0.01 µg/m3 61.15 µg/m3 25.35 µg/m3 12.48 µg/m3 25.8 °C 61.39 % 1,008.54 mbar 5.04 m/s 187.67 Deg 8.45 µg/m3
2022-05-31 10:00 26.06 µg/m3 0 µg/m3 55.56 µg/m3 22.94 µg/m3 7.91 µg/m3 25.58 °C 60.33 % 1,008.37 mbar 4.97 m/s 186.9 Deg 9 µg/m3
2022-05-31 09:00 30.99 µg/m3 0.03 µg/m3 46.93 µg/m3 33.64 µg/m3 9.5 µg/m3 25.2 °C 59.58 % 1,008.13 mbar 4.88 m/s 185.93 Deg 11.56 µg/m3
2022-05-31 08:00 17.08 µg/m3 -0.01 µg/m3 52.93 µg/m3 42.48 µg/m3 10.63 µg/m3 24.29 °C 66.98 % 1,008.00 mbar 4.03 m/s 172.12 Deg 6.65 µg/m3
2022-05-31 07:00 34.08 µg/m3 0.06 µg/m3 37.97 µg/m3 45.55 µg/m3 16.9 µg/m3 22.97 °C 78.14 % 1,007.59 mbar 3.13 m/s 169.88 Deg 13.28 µg/m3
2022-05-31 06:00 64.78 µg/m3 0.24 µg/m3 7.56 µg/m3 44.89 µg/m3 6.21 µg/m3 21.75 °C 83.5 % 1,007.43 mbar 2.14 m/s 186.52 Deg 33.47 µg/m3
2022-05-31 05:00 41.04 µg/m3 0.02 µg/m3 16.32 µg/m3 37.73 µg/m3 7.01 µg/m3 21.41 °C 78.49 % 1,007.18 mbar 2.14 m/s 191.53 Deg 10.68 µg/m3
2022-05-31 04:00 7.15 µg/m3 -0.04 µg/m3 76.16 µg/m3 30.08 µg/m3 6.89 µg/m3 22.37 °C 68.43 % 1,007.16 mbar 0.96 m/s 210.64 Deg 0.76 µg/m3
2022-05-31 03:00 11.26 µg/m3 -0.08 µg/m3 58.66 µg/m3 17.58 µg/m3 8.58 µg/m3 22.5 °C 67.23 % 1,007.17 mbar 0.79 m/s 105.7 Deg 0.84 µg/m3
2022-05-31 02:00 8.16 µg/m3 -0.06 µg/m3 66.23 µg/m3 11.44 µg/m3 11.82 µg/m3 23.02 °C 63.4 % 1,007.32 mbar 1.57 m/s 235.37 Deg 0.82 µg/m3
2022-05-31 01:00 2.23 µg/m3 -0.06 µg/m3 67.7 µg/m3 13.31 µg/m3 11.56 µg/m3 23.47 °C 65.09 % 1,007.44 mbar 2.51 m/s 254.68 Deg 0.77 µg/m3
2022-05-31 00:00 2.47 µg/m3 -0.07 µg/m3 66.07 µg/m3 21.09 µg/m3 16.99 µg/m3 22.66 °C 76.05 % 1,007.03 mbar 3.45 m/s 201.95 Deg 0.8 µg/m3
2022-05-30 23:00 3.97 µg/m3 -0.06 µg/m3 71.32 µg/m3 32.36 µg/m3 11.8 µg/m3 22.83 °C 74.47 % 1,007.11 mbar 4.11 m/s 199.25 Deg 0.87 µg/m3
2022-05-30 22:00 39.78 µg/m3 -0.07 µg/m3 53.03 µg/m3 34.15 µg/m3 9.05 µg/m3 22.6 °C 78.25 % 1,006.92 mbar 3.96 m/s 193.15 Deg 1.47 µg/m3
2022-05-30 21:00 57.23 µg/m3 -0.07 µg/m3 46.13 µg/m3 32.46 µg/m3 11.4 µg/m3 22.49 °C 80.74 % 1,006.54 mbar 3.9 m/s 186.13 Deg 1.67 µg/m3
2022-05-30 20:00 51.21 µg/m3 -0.07 µg/m3 51.38 µg/m3 23.5 µg/m3 15.29 µg/m3 22.86 °C 75.53 % 1,005.86 mbar 4.77 m/s 187 Deg 1.47 µg/m3
2022-05-30 19:00 35.72 µg/m3 -0.06 µg/m3 65.98 µg/m3 22.57 µg/m3 8.2 µg/m3 23.65 °C 67.1 % 1,005.49 mbar 4.74 m/s 186.15 Deg 2.03 µg/m3
2022-05-30 18:00 33.36 µg/m3 -0.05 µg/m3 72.6 µg/m3 22.65 µg/m3 8.61 µg/m3 24.39 °C 63.64 % 1,004.99 mbar 5.46 m/s 186.35 Deg 3.77 µg/m3
2022-05-30 17:00 27.35 µg/m3 -0.05 µg/m3 87.98 µg/m3 34.54 µg/m3 6.25 µg/m3 24.62 °C 65.41 % 1,005.07 mbar 5.95 m/s 184.95 Deg 3.93 µg/m3
2022-05-30 16:00 29.58 µg/m3 -0.03 µg/m3 90.92 µg/m3 37.1 µg/m3 9.62 µg/m3 25.41 °C 58.18 % 1,005.26 mbar 5.66 m/s 187.98 Deg 3.88 µg/m3
2022-05-30 15:00 29.77 µg/m3 -0.01 µg/m3 86.44 µg/m3 21.94 µg/m3 5.7 µg/m3 26.3 °C 55.19 % 1,005.22 mbar 5.34 m/s 180.57 Deg 6.52 µg/m3
2022-05-30 14:00 27.22 µg/m3 -0.04 µg/m3 81.54 µg/m3 18.12 µg/m3 5.9 µg/m3 26.25 °C 52.27 % 1,005.62 mbar 5.36 m/s 188.68 Deg 6.84 µg/m3
2022-05-30 13:00 24.76 µg/m3 0 µg/m3 74.39 µg/m3 11.7 µg/m3 5.57 µg/m3 26.18 °C 53.06 % 1,005.68 mbar 5.01 m/s 184.42 Deg 6.72 µg/m3
2022-05-30 12:00 28.72 µg/m3 0.01 µg/m3 67.59 µg/m3 12.3 µg/m3 6.25 µg/m3 27.24 °C 43.99 % 1,005.62 mbar 5 m/s 186.52 Deg 8.43 µg/m3
2022-05-30 11:00 11.44 µg/m3 -0.03 µg/m3 82.15 µg/m3 16.94 µg/m3 8.59 µg/m3 27.57 °C 41.72 % 1,005.62 mbar 4.63 m/s 194.68 Deg 3.06 µg/m3
2022-05-30 10:00 7.71 µg/m3 -0.08 µg/m3 84.59 µg/m3 24.37 µg/m3 12.74 µg/m3 26.59 °C 46.39 % 1,005.66 mbar 4.28 m/s 200.6 Deg 2.18 µg/m3
2022-05-30 09:00 7.2 µg/m3 -0.04 µg/m3 83.99 µg/m3 28.7 µg/m3 5.06 µg/m3 25.23 °C 54.13 % 1,005.60 mbar 3.88 m/s 215.03 Deg 2.16 µg/m3
2022-05-30 08:00 9.32 µg/m3 -0.02 µg/m3 81.48 µg/m3 24.26 µg/m3 6.33 µg/m3 25.15 °C 50.12 % 1,005.20 mbar 3.32 m/s 224.47 Deg 2.44 µg/m3
2022-05-30 07:00 27.59 µg/m3 0.05 µg/m3 63.5 µg/m3 18.66 µg/m3 6.25 µg/m3 24.06 °C 52.87 % 1,004.75 mbar 1.6 m/s 230.91 Deg 5.72 µg/m3
2022-05-30 06:00 39.61 µg/m3 -0.01 µg/m3 48.95 µg/m3 13.85 µg/m3 4.49 µg/m3 22.59 °C 53.1 % 1,004.26 mbar 1.39 m/s 239.4 Deg 4.67 µg/m3
2022-05-30 05:00 26.26 µg/m3 -0.02 µg/m3 59.53 µg/m3 10.65 µg/m3 5.32 µg/m3 21.86 °C 65.74 % 1,003.89 mbar 1.38 m/s 285.4 Deg 2.39 µg/m3
2022-05-30 04:00 5.6 µg/m3 -0.07 µg/m3 82.49 µg/m3 9.28 µg/m3 5.44 µg/m3 21.52 °C 71.49 % 1,003.92 mbar 1.48 m/s 294.1 Deg 0.68 µg/m3
2022-05-30 03:00 4.07 µg/m3 -0.08 µg/m3 84.55 µg/m3 10.07 µg/m3 5.41 µg/m3 21.64 °C 63.72 % 1,003.99 mbar 2.13 m/s 252.45 Deg 0.67 µg/m3
2022-05-30 02:00 5.55 µg/m3 -0.08 µg/m3 84.45 µg/m3 12.51 µg/m3 7.28 µg/m3 22.27 °C 54.95 % 1,003.79 mbar 1.8 m/s 259.25 Deg 0.65 µg/m3
2022-05-30 01:00 3.52 µg/m3 -0.08 µg/m3 90.16 µg/m3 14.49 µg/m3 8.33 µg/m3 22.57 °C 55.12 % 1,004.00 mbar 1.94 m/s 270.07 Deg 0.62 µg/m3
2022-05-30 00:00 5.32 µg/m3 -0.08 µg/m3 88.42 µg/m3 19.02 µg/m3 9.62 µg/m3 22.19 °C 60.62 % 1,004.19 mbar 2.3 m/s 249.57 Deg 0.7 µg/m3
2022-05-29 23:00 6.32 µg/m3 -0.1 µg/m3 91.03 µg/m3 28.82 µg/m3 12.52 µg/m3 22.26 °C 63 % 1,004.21 mbar 2.64 m/s 267.92 Deg 0.71 µg/m3
2022-05-29 22:00 6.72 µg/m3 -0.07 µg/m3 89.38 µg/m3 40.88 µg/m3 17.91 µg/m3 21.93 °C 72.2 % 1,004.14 mbar 2.72 m/s 265.15 Deg 0.81 µg/m3
2022-05-29 21:00 13.59 µg/m3 -0.09 µg/m3 86.54 µg/m3 41.51 µg/m3 15.7 µg/m3 21.72 °C 77.71 % 1,003.48 mbar 2.31 m/s 286.5 Deg 1.18 µg/m3
2022-05-29 20:00 14.85 µg/m3 -0.08 µg/m3 90.07 µg/m3 45.95 µg/m3 11.16 µg/m3 22.43 °C 66.58 % 1,002.58 mbar 2.6 m/s 259.33 Deg 0.98 µg/m3
2022-05-29 19:00 19 µg/m3 -0.04 µg/m3 86.31 µg/m3 24.84 µg/m3 6.09 µg/m3 24.09 °C 55.23 % 1,002.23 mbar 2.53 m/s 295.75 Deg 2.16 µg/m3
2022-05-29 18:00 11.27 µg/m3 -0.07 µg/m3 94.16 µg/m3 12.76 µg/m3 7.42 µg/m3 24.88 °C 52.41 % 1,001.77 mbar 3.37 m/s 306.72 Deg 2.02 µg/m3
2022-05-29 17:00 7.59 µg/m3 -0.1 µg/m3 97.05 µg/m3 11.05 µg/m3 7.91 µg/m3 25.12 °C 52.18 % 1,001.66 mbar 4.32 m/s 307.05 Deg 1.73 µg/m3
2022-05-29 16:00 7 µg/m3 -0.13 µg/m3 97.76 µg/m3 17.16 µg/m3 9.33 µg/m3 24.76 °C 57.13 % 1,001.66 mbar 4.36 m/s 303.53 Deg 1.79 µg/m3
2022-05-29 15:00 5.98 µg/m3 -0.13 µg/m3 99.92 µg/m3 24.71 µg/m3 7.17 µg/m3 24.13 °C 64.6 % 1,001.48 mbar 5.49 m/s 300.63 Deg 1.78 µg/m3
2022-05-29 14:00 5.96 µg/m3 -0.11 µg/m3 94.73 µg/m3 32.05 µg/m3 9.71 µg/m3 23.63 °C 74.1 % 1,001.51 mbar 4.71 m/s 294.78 Deg 1.86 µg/m3
2022-05-29 13:00 7.87 µg/m3 -0.14 µg/m3 93.8 µg/m3 33.58 µg/m3 6.86 µg/m3 23.63 °C 74.97 % 1,001.34 mbar 4 m/s 304.57 Deg 2.26 µg/m3
2022-05-29 12:00 9.02 µg/m3 -0.13 µg/m3 88.47 µg/m3 32.38 µg/m3 6.46 µg/m3 23.22 °C 76.1 % 1,001.25 mbar 4.26 m/s 305.43 Deg 2.74 µg/m3
2022-05-29 11:00 8.7 µg/m3 -0.1 µg/m3 81.64 µg/m3 26.97 µg/m3 5.28 µg/m3 22.84 °C 77.62 % 1,001.23 mbar 3.86 m/s 309.8 Deg 2.86 µg/m3
2022-05-29 10:00 9.13 µg/m3 -0.11 µg/m3 83.65 µg/m3 18.92 µg/m3 7.68 µg/m3 22.44 °C 78.89 % 1,001.06 mbar 3.94 m/s 308.42 Deg 2.78 µg/m3
2022-05-29 09:00 10.28 µg/m3 -0.12 µg/m3 87.68 µg/m3 17.08 µg/m3 8.09 µg/m3 22.01 °C 79.5 % 1,000.57 mbar 3.2 m/s 312.08 Deg 2.84 µg/m3
2022-05-29 08:00 8.38 µg/m3 -0.14 µg/m3 89.48 µg/m3 22.12 µg/m3 11.32 µg/m3 20.9 °C 84.3 % 1,000.12 mbar 3.76 m/s 331.35 Deg 2.2 µg/m3
2022-05-29 07:00 11.22 µg/m3 -0.12 µg/m3 78.01 µg/m3 27.84 µg/m3 15.97 µg/m3 20.16 °C 92.39 % 999.77 mbar 2.57 m/s 321.72 Deg 2.23 µg/m3
2022-05-29 06:00 8.73 µg/m3 -0.13 µg/m3 75.77 µg/m3 24.95 µg/m3 8.85 µg/m3 19.44 °C 95.41 % 999.39 mbar 2.53 m/s 321.42 Deg 1.37 µg/m3
2022-05-29 05:00 5.04 µg/m3 -0.14 µg/m3 78.17 µg/m3 16.98 µg/m3 9.42 µg/m3 19.21 °C 96.41 % 998.83 mbar 2.53 m/s 317.93 Deg 0.83 µg/m3
2022-05-29 04:00 2.63 µg/m3 -0.14 µg/m3 78.06 µg/m3 12.21 µg/m3 14.63 µg/m3 19.05 °C 97.01 % 998.47 mbar 2.66 m/s 307.35 Deg 0.72 µg/m3
2022-05-29 03:00 2.25 µg/m3 -0.15 µg/m3 75.41 µg/m3 12.83 µg/m3 8.7 µg/m3 19.42 °C 99.95 % 998.44 mbar 2.74 m/s 308.08 Deg 0.69 µg/m3
2022-05-29 02:00 1.25 µg/m3 -0.14 µg/m3 87.38 µg/m3 20.37 µg/m3 8.7 µg/m3 19.68 °C 98.33 % 998.81 mbar 3.61 m/s 284.35 Deg 0.63 µg/m3
2022-05-29 01:00 1.28 µg/m3 -0.15 µg/m3 95.01 µg/m3 16.53 µg/m3 12.3 µg/m3 20.81 °C 90.99 % 999.18 mbar 3.8 m/s 265.33 Deg 0.61 µg/m3
2022-05-29 00:00 2.11 µg/m3 -0.14 µg/m3 95.27 µg/m3 21.28 µg/m3 6.54 µg/m3 20.79 °C 88.7 % 999.59 mbar 4.64 m/s 273.82 Deg 0.72 µg/m3
2022-05-28 23:00 1.98 µg/m3 -0.13 µg/m3 87.91 µg/m3 27.65 µg/m3 6.29 µg/m3 20.68 °C 94.6 % 999.85 mbar 4.76 m/s 249.67 Deg 0.79 µg/m3
2022-05-28 22:00 1.82 µg/m3 -0.14 µg/m3 86.58 µg/m3 34.62 µg/m3 8.85 µg/m3 20.78 °C 96.61 % 1,000.27 mbar 3.33 m/s 231.68 Deg 0.76 µg/m3
2022-05-28 21:00 5.03 µg/m3 -0.13 µg/m3 85.95 µg/m3 26.64 µg/m3 4.46 µg/m3 20.76 °C 93.88 % 1,000.26 mbar 3.03 m/s 234.63 Deg 0.95 µg/m3
2022-05-28 20:00 7.41 µg/m3 -0.09 µg/m3 88.22 µg/m3 22.06 µg/m3 4.15 µg/m3 20.85 °C 88.09 % 1,000.03 mbar 2.62 m/s 239.18 Deg 1.02 µg/m3
2022-05-28 19:00 7.84 µg/m3 -0.1 µg/m3 87.9 µg/m3 19.06 µg/m3 4.14 µg/m3 21.2 °C 84.96 % 999.86 mbar 2.76 m/s 243.28 Deg 1.2 µg/m3
2022-05-28 18:00 4.72 µg/m3 -0.1 µg/m3 91.47 µg/m3 26.37 µg/m3 4.83 µg/m3 22 °C 79.24 % 999.87 mbar 3.21 m/s 237.17 Deg 1.22 µg/m3
2022-05-28 17:00 5.38 µg/m3 -0.13 µg/m3 92.78 µg/m3 32.57 µg/m3 6.13 µg/m3 22.31 °C 77.23 % 1,000.38 mbar 3.37 m/s 250.35 Deg 1.41 µg/m3
2022-05-28 16:00 4.92 µg/m3 -0.11 µg/m3 95.14 µg/m3 31.8 µg/m3 5.59 µg/m3 22.86 °C 73.95 % 1,000.65 mbar 3.5 m/s 266.25 Deg 1.49 µg/m3
2022-05-28 15:00 4.57 µg/m3 -0.07 µg/m3 94.99 µg/m3 19.91 µg/m3 6.23 µg/m3 23.3 °C 69.81 % 1,001.06 mbar 3.95 m/s 264.88 Deg 1.41 µg/m3
2022-05-28 14:00 5.76 µg/m3 -0.1 µg/m3 94.52 µg/m3 9.25 µg/m3 6.39 µg/m3 24.23 °C 63.07 % 1,001.42 mbar 3.54 m/s 281.45 Deg 1.62 µg/m3
2022-05-28 13:00 8.23 µg/m3 -0.1 µg/m3 94.26 µg/m3 8.56 µg/m3 6.48 µg/m3 24.53 °C 56.53 % 1,001.77 mbar 3.42 m/s 312.5 Deg 2.2 µg/m3
2022-05-28 12:00 10.05 µg/m3 -0.06 µg/m3 94.09 µg/m3 9.22 µg/m3 6.4 µg/m3 24.23 °C 56.59 % 1,001.97 mbar 3.57 m/s 318.33 Deg 3.14 µg/m3
2022-05-28 11:00 12.53 µg/m3 -0.07 µg/m3 94.64 µg/m3 9.69 µg/m3 5.56 µg/m3 23.72 °C 60.54 % 1,002.21 mbar 3 m/s 332.08 Deg 3.35 µg/m3
2022-05-28 10:00 12.74 µg/m3 -0.1 µg/m3 93.96 µg/m3 10.08 µg/m3 6.58 µg/m3 23.28 °C 61.74 % 1,002.23 mbar 3.11 m/s 331.83 Deg 3.28 µg/m3
2022-05-28 09:00 13.64 µg/m3 -0.1 µg/m3 87.65 µg/m3 11.74 µg/m3 7.07 µg/m3 22.75 °C 64.57 % 1,002.57 mbar 3.19 m/s 317.97 Deg 3.53 µg/m3
2022-05-28 08:00 17.02 µg/m3 -0.06 µg/m3 81.36 µg/m3 12.77 µg/m3 6.74 µg/m3 21.9 °C 68.29 % 1,002.58 mbar 2.97 m/s 332.92 Deg 3.86 µg/m3
2022-05-28 07:00 17.14 µg/m3 -0.09 µg/m3 79.14 µg/m3 18.73 µg/m3 9.27 µg/m3 20.89 °C 74.74 % 1,002.75 mbar 3.2 m/s 326.15 Deg 3.49 µg/m3
2022-05-28 06:00 15.89 µg/m3 -0.14 µg/m3 76.62 µg/m3 34.09 µg/m3 12.52 µg/m3 19.93 °C 88.48 % 1,002.81 mbar 2.87 m/s 319.43 Deg 2.2 µg/m3
2022-05-28 05:00 10.42 µg/m3 -0.11 µg/m3 74.38 µg/m3 43.07 µg/m3 8.69 µg/m3 19.66 °C 98.75 % 1,002.62 mbar 2.56 m/s 323.1 Deg 1.44 µg/m3
2022-05-28 04:00 8.36 µg/m3 -0.12 µg/m3 67.41 µg/m3 31.23 µg/m3 12.61 µg/m3 19.76 °C 99.91 % 1,002.60 mbar 3.19 m/s 312.18 Deg 0.96 µg/m3
2022-05-28 03:00 5.95 µg/m3 -0.15 µg/m3 71.85 µg/m3 24.84 µg/m3 11.09 µg/m3 19.8 °C 99.95 % 1,002.70 mbar 2.97 m/s 302.13 Deg 0.87 µg/m3
2022-05-28 02:00 5.11 µg/m3 -0.14 µg/m3 68.4 µg/m3 26.04 µg/m3 13.97 µg/m3 19.83 °C 99.9 % 1,003.01 mbar 2.3 m/s 298.25 Deg 0.74 µg/m3
2022-05-28 01:00 4.48 µg/m3 -0.1 µg/m3 74.95 µg/m3 43.32 µg/m3 10.75 µg/m3 20.18 °C 99.28 % 1,003.28 mbar 1.94 m/s 302.48 Deg 0.79 µg/m3
2022-05-28 00:00 8.72 µg/m3 -0.12 µg/m3 66.94 µg/m3 49.86 µg/m3 12.85 µg/m3 20.14 °C 99.37 % 1,003.71 mbar 1.81 m/s 297.27 Deg 0.9 µg/m3
2022-05-27 23:00 9.25 µg/m3 -0.12 µg/m3 67.08 µg/m3 52.49 µg/m3 13.55 µg/m3 20.32 °C 98.95 % 1,003.76 mbar 1.38 m/s 313.94 Deg 1 µg/m3
2022-05-27 22:00 11.03 µg/m3 -0.1 µg/m3 69.95 µg/m3 60.72 µg/m3 16.45 µg/m3 20.85 °C 95.34 % 1,003.76 mbar 1.83 m/s 289.72 Deg 1.05 µg/m3
2022-05-27 21:00 12.97 µg/m3 -0.12 µg/m3 71.28 µg/m3 55.27 µg/m3 11.33 µg/m3 21.19 °C 95.55 % 1,003.25 mbar 1.71 m/s 295.85 Deg 1.16 µg/m3
2022-05-27 20:00 8.95 µg/m3 -0.14 µg/m3 79.16 µg/m3 57.51 µg/m3 15.79 µg/m3 21.26 °C 98.06 % 1,002.82 mbar 1.86 m/s 250.38 Deg 0.98 µg/m3
2022-05-27 19:00 13.37 µg/m3 -0.12 µg/m3 76.75 µg/m3 43.07 µg/m3 15.15 µg/m3 21.64 °C 95.71 % 1,002.57 mbar 3.7 m/s 169.3 Deg 0.96 µg/m3
2022-05-27 18:00 2.13 µg/m3 -0.13 µg/m3 83.71 µg/m3 35.44 µg/m3 18.12 µg/m3 22.52 °C 87.93 % 1,002.38 mbar 4.6 m/s 138.85 Deg 0.78 µg/m3
2022-05-27 17:00 0.09 µg/m3 -0.14 µg/m3 86.38 µg/m3 40.52 µg/m3 15.71 µg/m3 22.85 °C 84.55 % 1,002.80 mbar 5.23 m/s 133.57 Deg 0.63 µg/m3
2022-05-27 16:00 0.35 µg/m3 -0.13 µg/m3 88.53 µg/m3 38.4 µg/m3 12.17 µg/m3 23.28 °C 80.81 % 1,003.37 mbar 5.72 m/s 130.4 Deg 0.68 µg/m3
2022-05-27 15:00 0.79 µg/m3 -0.12 µg/m3 91.21 µg/m3 40.27 µg/m3 12.17 µg/m3 23.7 °C 76.87 % 1,003.75 mbar 6.38 m/s 142.4 Deg 0.75 µg/m3
2022-05-27 14:00 1.33 µg/m3 -0.12 µg/m3 94.52 µg/m3 39.03 µg/m3 6.22 µg/m3 23.98 °C 75.1 % 1,004.15 mbar 7 m/s 140.85 Deg 0.84 µg/m3
2022-05-27 13:00 1.95 µg/m3 -0.14 µg/m3 95.82 µg/m3 34.17 µg/m3 5.96 µg/m3 23.65 °C 75.01 % 1,004.36 mbar 6.56 m/s 157.4 Deg 0.86 µg/m3
2022-05-27 12:00 -0 µg/m3 -0.14 µg/m3 91.97 µg/m3 23.58 µg/m3 8.11 µg/m3 23.35 °C 74.33 % 1,005.10 mbar 7.46 m/s 126.08 Deg 0.61 µg/m3
2022-05-27 11:00 3.4 µg/m3 -0.11 µg/m3 90.45 µg/m3 25.57 µg/m3 9.63 µg/m3 23.65 °C 74.93 % 1,004.23 mbar 10.24 m/s 119.03 Deg 1.33 µg/m3
2022-05-27 10:00 5.33 µg/m3 -0.1 µg/m3 85.44 µg/m3 36.94 µg/m3 12.61 µg/m3 22.43 °C 82.06 % 1,005.30 mbar 7.13 m/s 199.02 Deg 1.27 µg/m3
2022-05-27 09:00 11.72 µg/m3 -0.1 µg/m3 75.72 µg/m3 31.37 µg/m3 14.03 µg/m3 22.57 °C 79.29 % 1,008.25 mbar 2.81 m/s 172.83 Deg 1.61 µg/m3
2022-05-27 08:00 8.02 µg/m3 -0.09 µg/m3 79.41 µg/m3 30 µg/m3 5.64 µg/m3 22.21 °C 83.07 % 1,006.83 mbar 3.55 m/s 273.57 Deg 1.43 µg/m3
2022-05-27 07:00 17.93 µg/m3 0.42 µg/m3 73.07 µg/m3 34.76 µg/m3 6.35 µg/m3 21.98 °C 84.39 % 1,007.43 mbar 2.8 m/s 188.62 Deg 2.12 µg/m3
2022-05-27 06:00 8.16 µg/m3 -0.12 µg/m3 83.35 µg/m3 22.81 µg/m3 5.19 µg/m3 22.25 °C 79.55 % 1,007.20 mbar 2.99 m/s 187.28 Deg 1.58 µg/m3
2022-05-27 05:00 2.99 µg/m3 -0.13 µg/m3 88.53 µg/m3 11.2 µg/m3 5.29 µg/m3 21.73 °C 82.04 % 1,005.91 mbar 3.63 m/s 136.12 Deg 0.59 µg/m3
2022-05-27 04:00 -0.03 µg/m3 -0.09 µg/m3 98.52 µg/m3 8.39 µg/m3 5.94 µg/m3 22.2 °C 77.02 % 1,005.88 mbar 3.46 m/s 179.2 Deg 0.56 µg/m3
2022-05-27 03:00 0.96 µg/m3 -0.15 µg/m3 97.72 µg/m3 10.18 µg/m3 5.5 µg/m3 22.62 °C 71.91 % 1,005.81 mbar 8.09 m/s 133.12 Deg 0.56 µg/m3
2022-05-27 02:00 2.43 µg/m3 -0.14 µg/m3 89.17 µg/m3 14.95 µg/m3 6.85 µg/m3 21.72 °C 83.99 % 1,007.36 mbar 5.73 m/s 148.6 Deg 0.61 µg/m3
2022-05-27 01:00 1.06 µg/m3 -0.13 µg/m3 84.59 µg/m3 21.36 µg/m3 6.85 µg/m3 21.3 °C 90.44 % 1,008.13 mbar 4.91 m/s 120.42 Deg 0.62 µg/m3
2022-05-27 00:00 0.57 µg/m3 -0.1 µg/m3 81.49 µg/m3 36.7 µg/m3 9.76 µg/m3 21.12 °C 94.66 % 1,008.50 mbar 5.06 m/s 118.8 Deg 0.59 µg/m3
2022-05-26 23:00 1.55 µg/m3 -0.11 µg/m3 79.82 µg/m3 23.1 µg/m3 5.61 µg/m3 21.28 °C 93.92 % 1,009.22 mbar 3.96 m/s 158.4 Deg 0.62 µg/m3
2022-05-26 22:00 0.5 µg/m3 -0.11 µg/m3 87.03 µg/m3 23.25 µg/m3 6.04 µg/m3 21.56 °C 92.45 % 1,009.38 mbar 3.28 m/s 181.9 Deg 0.62 µg/m3
2022-05-26 21:00 0.93 µg/m3 -0.08 µg/m3 86.74 µg/m3 24.88 µg/m3 6.46 µg/m3 21.83 °C 89.77 % 1,008.98 mbar 4.37 m/s 121.72 Deg 0.59 µg/m3
2022-05-26 20:00 1.47 µg/m3 -0.09 µg/m3 82.93 µg/m3 24.02 µg/m3 6.55 µg/m3 22.01 °C 89.6 % 1,007.82 mbar 5.59 m/s 133.68 Deg 0.65 µg/m3
2022-05-26 19:00 1.26 µg/m3 -0.07 µg/m3 81.75 µg/m3 38.19 µg/m3 5.81 µg/m3 22.14 °C 89.58 % 1,007.61 mbar 5.9 m/s 128.18 Deg 0.61 µg/m3
2022-05-26 18:00 1.24 µg/m3 -0.1 µg/m3 79.4 µg/m3 30.42 µg/m3 6.13 µg/m3 22.57 °C 89.02 % 1,008.23 mbar 5.27 m/s 118.3 Deg 0.7 µg/m3
2022-05-26 17:00 0.26 µg/m3 -0.1 µg/m3 82.54 µg/m3 20.1 µg/m3 6.21 µg/m3 23.47 °C 81.46 % 1,009.20 mbar 4.37 m/s 124.18 Deg 0.65 µg/m3
2022-05-26 16:00 0.07 µg/m3 -0.11 µg/m3 84.8 µg/m3 24.51 µg/m3 5.05 µg/m3 24.2 °C 75.18 % 1,009.38 mbar 4.89 m/s 133.72 Deg 0.67 µg/m3
2022-05-26 15:00 0.2 µg/m3 -0.08 µg/m3 87.05 µg/m3 12.99 µg/m3 5.67 µg/m3 24.86 °C 68.97 % 1,009.62 mbar 5.59 m/s 132.65 Deg 0.71 µg/m3
2022-05-26 14:00 1.09 µg/m3 -0.1 µg/m3 88.24 µg/m3 6.61 µg/m3 6.35 µg/m3 25.15 °C 65.91 % 1,009.95 mbar 6.22 m/s 129.75 Deg 0.84 µg/m3
2022-05-26 13:00 2.17 µg/m3 -0.1 µg/m3 87.72 µg/m3 7.47 µg/m3 6.4 µg/m3 25.66 °C 62.14 % 1,010.19 mbar 5.49 m/s 128.94 Deg 1.11 µg/m3
2022-05-26 12:00 0.57 µg/m3 -0.1 µg/m3 91.72 µg/m3 9.75 µg/m3 6.81 µg/m3 25.43 °C 63.34 % 1,010.51 mbar 4.69 m/s 128.83 Deg 0.73 µg/m3
2022-05-26 11:00 0.75 µg/m3 -0.09 µg/m3 92.94 µg/m3 9.39 µg/m3 6.33 µg/m3 25.18 °C 63.98 % 1,010.51 mbar 4.53 m/s 130.62 Deg 0.76 µg/m3

It is to be noted that the data is provisional and subject to quality assurance procedures. For validated data kindly refer your request to contact.air@era.org.mt